Observation data for Earth on 09/25/2020      Previous  Date       Current Mesonet Observations  Soil Data  Daily Summary Page  Observations in Plain Language
KEA1 250500Z 18012KT 22/02 A3002 RMK A01 T02180016  RH  026%=      5-min Rain = 0
KEA1 250501Z 18012KT 22/02 A3002 RMK A01 T02170016  RH  026%=      5-min Rain = 0
KEA1 250502Z 18013KT 22/02 A3002 RMK A01 T02170016  RH  027%=      5-min Rain = 0
KEA1 250503Z 18013KT 22/02 A3002 RMK A01 T02170017  RH  027%=      5-min Rain = 0
KEA1 250504Z 18013KT 22/02 A3002 RMK A01 T02170017  RH  027%=      5-min Rain = 0
KEA1 250505Z 19013KT 22/02 A3002 RMK A01 T02170018  RH  027%=      5-min Rain = 0
KEA1 250506Z 19013KT 22/02 A3002 RMK A01 T02170018  RH  027%=      5-min Rain = 0
KEA1 250507Z 19012KT 22/02 A3002 RMK A01 T02160019  RH  027%=      5-min Rain = 0
KEA1 250508Z 18014KT 22/02 A3002 RMK A01 T02160019  RH  027%=      5-min Rain = 0
KEA1 250509Z 18013KT 22/02 A3002 RMK A01 T02160019  RH  027%=      5-min Rain = 0
KEA1 250510Z 18013KT 22/02 A3002 RMK A01 T02150019  RH  027%=      5-min Rain = 0
KEA1 250511Z 18012KT 22/02 A3002 RMK A01 T02150019  RH  027%=      5-min Rain = 0
KEA1 250512Z 18012KT 21/02 A3002 RMK A01 T02140019  RH  028%=      5-min Rain = 0
KEA1 250513Z 18013KT 21/02 A3002 RMK A01 T02130020  RH  028%=      5-min Rain = 0
KEA1 250514Z 18012KT 21/02 A3002 RMK A01 T02130020  RH  028%=      5-min Rain = 0
KEA1 250515Z 18014KT 21/02 A3002 RMK A01 T02130020  RH  028%=      5-min Rain = 0
KEA1 250516Z 18012KT 21/02 A3002 RMK A01 T02130020  RH  028%=      5-min Rain = 0
KEA1 250517Z 18012KT 21/02 A3002 RMK A01 T02130020  RH  028%=      5-min Rain = 0
KEA1 250518Z 18011KT 21/02 A3002 RMK A01 T02120020  RH  028%=      5-min Rain = 0
KEA1 250519Z 19012KT 21/02 A3002 RMK A01 T02110020  RH  028%=      5-min Rain = 0
KEA1 250520Z 19012KT 21/02 A3002 RMK A01 T02100021  RH  029%=      5-min Rain = 0
KEA1 250521Z 18011KT 21/02 A3002 RMK A01 T02100021  RH  029%=      5-min Rain = 0
KEA1 250522Z 18011KT 21/02 A3002 RMK A01 T02100021  RH  029%=      5-min Rain = 0
KEA1 250523Z 18011KT 21/02 A3002 RMK A01 T02100022  RH  029%=      5-min Rain = 0
KEA1 250524Z 18012KT 21/02 A3002 RMK A01 T02100021  RH  029%=      5-min Rain = 0
KEA1 250525Z 18012KT 21/02 A3002 RMK A01 T02100021  RH  029%=      5-min Rain = 0
KEA1 250526Z 18013KT 21/02 A3002 RMK A01 T02100022  RH  029%=      5-min Rain = 0
KEA1 250527Z 18012KT 21/02 A3002 RMK A01 T02110022  RH  029%=      5-min Rain = 0
KEA1 250528Z 18013KT 21/02 A3002 RMK A01 T02110022  RH  029%=      5-min Rain = 0
KEA1 250529Z 19013KT 21/02 A3002 RMK A01 T02110022  RH  029%=      5-min Rain = 0
KEA1 250530Z 18013KT 21/02 A3002 RMK A01 T02120023  RH  029%=      5-min Rain = 0
KEA1 250531Z 18012KT 21/02 A3002 RMK A01 T02120023  RH  029%=      5-min Rain = 0
KEA1 250532Z 18013KT 21/02 A3002 RMK A01 T02120023  RH  029%=      5-min Rain = 0
KEA1 250533Z 18012KT 21/02 A3002 RMK A01 T02130024  RH  029%=      5-min Rain = 0
KEA1 250534Z 19014KT 21/02 A3002 RMK A01 T02130024  RH  029%=      5-min Rain = 0
KEA1 250535Z 19012KT 21/03 A3002 RMK A01 T02140025  RH  029%=      5-min Rain = 0
KEA1 250536Z 19013KT 21/02 A3002 RMK A01 T02140024  RH  029%=      5-min Rain = 0
KEA1 250537Z 19013KT 21/02 A3002 RMK A01 T02140024  RH  029%=      5-min Rain = 0
KEA1 250538Z 19012KT 21/03 A3002 RMK A01 T02140025  RH  029%=      5-min Rain = 0
KEA1 250539Z 19012KT 21/03 A3002 RMK A01 T02140025  RH  029%=      5-min Rain = 0
KEA1 250540Z 19012KT 21/03 A3002 RMK A01 T02140025  RH  029%=      5-min Rain = 0
KEA1 250541Z 19012KT 21/02 A3002 RMK A01 T02140024  RH  029%=      5-min Rain = 0
KEA1 250542Z 19012KT 21/03 A3002 RMK A01 T02140025  RH  029%=      5-min Rain = 0
KEA1 250543Z 19012KT 21/03 A3002 RMK A01 T02140025  RH  029%=      5-min Rain = 0
KEA1 250544Z 19013KT 21/03 A3002 RMK A01 T02140025  RH  029%=      5-min Rain = 0
KEA1 250545Z 19015KT 21/03 A3002 RMK A01 T02140025  RH  029%=      5-min Rain = 0
KEA1 250546Z 19014KT 22/03 A3002 RMK A01 T02160026  RH  029%=      5-min Rain = 0
KEA1 250547Z 19011KT 22/03 A3002 RMK A01 T02150026  RH  029%=      5-min Rain = 0
KEA1 250548Z 19014KT 21/03 A3002 RMK A01 T02140025  RH  029%=      5-min Rain = 0
KEA1 250549Z 19013KT 21/03 A3002 RMK A01 T02140025  RH  029%=      5-min Rain = 0
KEA1 250550Z 18014KT 22/03 A3002 RMK A01 T02150026  RH  029%=      5-min Rain = 0
KEA1 250551Z 18015KT 21/03 A3002 RMK A01 T02140026  RH  029%=      5-min Rain = 0
KEA1 250552Z 19014KT 22/03 A3002 RMK A01 T02150026  RH  029%=      5-min Rain = 0
KEA1 250553Z 18013KT 22/03 A3002 RMK A01 T02150026  RH  029%=      5-min Rain = 0
KEA1 250554Z 18013KT 22/03 A3002 RMK A01 T02150027  RH  029%=      5-min Rain = 0
KEA1 250555Z 18013KT 22/03 A3002 RMK A01 T02150026  RH  029%=      5-min Rain = 0
KEA1 250556Z 19013KT 22/03 A3002 RMK A01 T02150027  RH  029%=      5-min Rain = 0
KEA1 250557Z 19014KT 21/03 A3002 RMK A01 T02140027  RH  029%=      5-min Rain = 0
KEA1 250558Z 19013KT 21/03 A3002 RMK A01 T02140028  RH  029%=      5-min Rain = 0
KEA1 250559Z 19014KT 22/03 A3002 RMK A01 T02150027  RH  029%=      5-min Rain = 0
KEA1 250600Z 19014KT 22/03 A3002 RMK A01 T02160028  RH  029%=      5-min Rain = 0
KEA1 250601Z 19013KT 22/03 A3002 RMK A01 T02160028  RH  029%=      5-min Rain = 0
KEA1 250602Z 19015KT 22/03 A3002 RMK A01 T02160028  RH  029%=      5-min Rain = 0
KEA1 250603Z 19015KT 22/03 A3002 RMK A01 T02170029  RH  029%=      5-min Rain = 0
KEA1 250604Z 19014KT 22/03 A3002 RMK A01 T02180029  RH  029%=      5-min Rain = 0
KEA1 250605Z 19015KT 22/03 A3002 RMK A01 T02180029  RH  029%=      5-min Rain = 0
KEA1 250606Z 19014KT 22/03 A3002 RMK A01 T02170029  RH  029%=      5-min Rain = 0
KEA1 250607Z 19013KT 22/03 A3002 RMK A01 T02160029  RH  029%=      5-min Rain = 0
KEA1 250608Z 19012KT 22/03 A3002 RMK A01 T02150029  RH  029%=      5-min Rain = 0
KEA1 250609Z 19013KT 22/03 A3002 RMK A01 T02150030  RH  030%=      5-min Rain = 0
KEA1 250610Z 19014KT 22/03 A3002 RMK A01 T02160031  RH  030%=      5-min Rain = 0
KEA1 250611Z 19014KT 22/03 A3002 RMK A01 T02160031  RH  030%=      5-min Rain = 0
KEA1 250612Z 19014KT 22/03 A3002 RMK A01 T02160032  RH  030%=      5-min Rain = 0
KEA1 250613Z 19011KT 22/03 A3002 RMK A01 T02160032  RH  030%=      5-min Rain = 0
KEA1 250614Z 19014KT 22/03 A3002 RMK A01 T02150032  RH  030%=      5-min Rain = 0
KEA1 250615Z 19014KT 22/03 A3002 RMK A01 T02150032  RH  030%=      5-min Rain = 0
KEA1 250616Z 19014KT 22/03 A3002 RMK A01 T02160032  RH  030%=      5-min Rain = 0
KEA1 250617Z 19014KT 22/03 A3002 RMK A01 T02160032  RH  030%=      5-min Rain = 0
KEA1 250618Z 19012KT 22/03 A3002 RMK A01 T02160032  RH  030%=      5-min Rain = 0
KEA1 250619Z 19012KT 22/03 A3002 RMK A01 T02150032  RH  030%=      5-min Rain = 0
KEA1 250620Z 19012KT 21/03 A3002 RMK A01 T02140032  RH  030%=      5-min Rain = 0
KEA1 250621Z 19012KT 21/03 A3002 RMK A01 T02130032  RH  030%=      5-min Rain = 0
KEA1 250622Z 19013KT 21/03 A3002 RMK A01 T02130033  RH  030%=      5-min Rain = 0
KEA1 250623Z 19012KT 21/03 A3002 RMK A01 T02140032  RH  030%=      5-min Rain = 0
KEA1 250624Z 19011KT 21/03 A3002 RMK A01 T02140033  RH  030%=      5-min Rain = 0
KEA1 250625Z 19012KT 21/03 A3002 RMK A01 T02130033  RH  030%=      5-min Rain = 0
KEA1 250626Z 19013KT 21/03 A3002 RMK A01 T02130033  RH  031%=      5-min Rain = 0
KEA1 250627Z 19013KT 21/03 A3002 RMK A01 T02130033  RH  031%=      5-min Rain = 0
KEA1 250628Z 19013KT 21/03 A3002 RMK A01 T02120033  RH  031%=      5-min Rain = 0
KEA1 250629Z 20012KT 21/03 A3002 RMK A01 T02130033  RH  031%=      5-min Rain = 0
KEA1 250630Z 19012KT 21/03 A3002 RMK A01 T02130033  RH  031%=      5-min Rain = 0
KEA1 250631Z 19012KT 21/03 A3002 RMK A01 T02120033  RH  031%=      5-min Rain = 0
KEA1 250632Z 19012KT 21/03 A3002 RMK A01 T02110033  RH  031%=      5-min Rain = 0
KEA1 250633Z 19012KT 21/03 A3002 RMK A01 T02110033  RH  031%=      5-min Rain = 0
KEA1 250634Z 20012KT 21/03 A3002 RMK A01 T02100033  RH  031%=      5-min Rain = 0
KEA1 250635Z 20011KT 21/03 A3002 RMK A01 T02100034  RH  031%=      5-min Rain = 0
KEA1 250636Z 20012KT 21/03 A3002 RMK A01 T02100034  RH  031%=      5-min Rain = 0
KEA1 250637Z 20011KT 21/03 A3002 RMK A01 T02100034  RH  031%=      5-min Rain = 0
KEA1 250638Z 20012KT 21/03 A3002 RMK A01 T02100034  RH  031%=      5-min Rain = 0
KEA1 250639Z 20012KT 21/04 A3002 RMK A01 T02100035  RH  032%=      5-min Rain = 0
KEA1 250640Z 20013KT 21/04 A3002 RMK A01 T02090035  RH  032%=      5-min Rain = 0
KEA1 250641Z 20012KT 21/04 A3002 RMK A01 T02090035  RH  032%=      5-min Rain = 0
KEA1 250642Z 19011KT 21/04 A3002 RMK A01 T02090036  RH  032%=      5-min Rain = 0
KEA1 250643Z 20011KT 21/04 A3002 RMK A01 T02090036  RH  032%=      5-min Rain = 0
KEA1 250644Z 20011KT 21/04 A3002 RMK A01 T02080036  RH  032%=      5-min Rain = 0
KEA1 250645Z 20012KT 21/04 A3002 RMK A01 T02080037  RH  032%=      5-min Rain = 0
KEA1 250646Z 20010KT 21/04 A3002 RMK A01 T02070037  RH  033%=      5-min Rain = 0
KEA1 250647Z 20011KT 21/04 A3002 RMK A01 T02060037  RH  033%=      5-min Rain = 0
KEA1 250648Z 20012KT 21/04 A3002 RMK A01 T02050037  RH  033%=      5-min Rain = 0
KEA1 250649Z 20011KT 21/04 A3002 RMK A01 T02050038  RH  033%=      5-min Rain = 0
KEA1 250650Z 19012KT 21/04 A3002 RMK A01 T02050039  RH  034%=      5-min Rain = 0
KEA1 250651Z 20013KT 21/04 A3002 RMK A01 T02050040  RH  034%=      5-min Rain = 0
KEA1 250652Z 20012KT 21/04 A3002 RMK A01 T02050042  RH  034%=      5-min Rain = 0
KEA1 250653Z 19013KT 21/04 A3002 RMK A01 T02060042  RH  034%=      5-min Rain = 0
KEA1 250654Z 20014KT 21/04 A3002 RMK A01 T02070043  RH  034%=      5-min Rain = 0
KEA1 250655Z 20014KT 21/04 A3002 RMK A01 T02070043  RH  034%=      5-min Rain = 0
KEA1 250656Z 20013KT 21/04 A3002 RMK A01 T02080044  RH  034%=      5-min Rain = 0
KEA1 250657Z 20013KT 21/04 A3002 RMK A01 T02080044  RH  034%=      5-min Rain = 0
KEA1 250658Z 20012KT 21/04 A3002 RMK A01 T02080044  RH  034%=      5-min Rain = 0
KEA1 250659Z 20011KT 21/04 A3002 RMK A01 T02080044  RH  034%=      5-min Rain = 0
KEA1 250700Z 20014KT 21/05 A3002 RMK A01 T02070045  RH  034%=      5-min Rain = 0
KEA1 250701Z 20014KT 21/05 A3002 RMK A01 T02080045  RH  034%=      5-min Rain = 0
KEA1 250702Z 20014KT 21/05 A3002 RMK A01 T02080045  RH  034%=      5-min Rain = 0
KEA1 250703Z 20012KT 21/05 A3002 RMK A01 T02090045  RH  034%=      5-min Rain = 0
KEA1 250704Z 21012KT 21/04 A3002 RMK A01 T02090044  RH  034%=      5-min Rain = 0
KEA1 250705Z 20013KT 21/04 A3002 RMK A01 T02080044  RH  034%=      5-min Rain = 0
KEA1 250706Z 20013KT 21/04 A3002 RMK A01 T02080044  RH  034%=      5-min Rain = 0
KEA1 250707Z 20013KT 21/04 A3002 RMK A01 T02080044  RH  034%=      5-min Rain = 0
KEA1 250708Z 20012KT 21/04 A3002 RMK A01 T02070043  RH  034%=      5-min Rain = 0
KEA1 250709Z 20014KT 21/04 A3002 RMK A01 T02070043  RH  034%=      5-min Rain = 0
KEA1 250710Z 20012KT 21/04 A3002 RMK A01 T02060043  RH  034%=      5-min Rain = 0
KEA1 250711Z 20013KT 21/04 A3002 RMK A01 T02060043  RH  034%=      5-min Rain = 0
KEA1 250712Z 20013KT 21/04 A3002 RMK A01 T02060043  RH  034%=      5-min Rain = 0
KEA1 250713Z 21012KT 21/04 A3002 RMK A01 T02070043  RH  034%=      5-min Rain = 0
KEA1 250714Z 20012KT 21/04 A3003 RMK A01 T02070043  RH  034%=      5-min Rain = 0
KEA1 250715Z 20011KT 21/04 A3002 RMK A01 T02060042  RH  034%=      5-min Rain = 0
KEA1 250716Z 21011KT 21/04 A3003 RMK A01 T02060042  RH  034%=      5-min Rain = 0
KEA1 250717Z 20011KT 21/04 A3003 RMK A01 T02050042  RH  034%=      5-min Rain = 0
KEA1 250718Z 21013KT 20/04 A3003 RMK A01 T02040042  RH  034%=      5-min Rain = 0
KEA1 250719Z 20014KT 21/04 A3002 RMK A01 T02050042  RH  034%=      5-min Rain = 0
KEA1 250720Z 20013KT 21/04 A3002 RMK A01 T02060042  RH  034%=      5-min Rain = 0
KEA1 250721Z 20013KT 21/04 A3002 RMK A01 T02060042  RH  034%=      5-min Rain = 0
KEA1 250722Z 20011KT 21/04 A3002 RMK A01 T02060042  RH  034%=      5-min Rain = 0
KEA1 250723Z 20012KT 21/04 A3002 RMK A01 T02050041  RH  034%=      5-min Rain = 0
KEA1 250724Z 20012KT 20/04 A3002 RMK A01 T02040041  RH  034%=      5-min Rain = 0
KEA1 250725Z 20011KT 20/04 A3003 RMK A01 T02040041  RH  034%=      5-min Rain = 0
KEA1 250726Z 20011KT 20/04 A3003 RMK A01 T02040041  RH  034%=      5-min Rain = 0
KEA1 250727Z 21013KT 20/04 A3002 RMK A01 T02030041  RH  034%=      5-min Rain = 0
KEA1 250728Z 20012KT 20/04 A3002 RMK A01 T02030041  RH  034%=      5-min Rain = 0
KEA1 250729Z 21014KT 20/04 A3002 RMK A01 T02030041  RH  034%=      5-min Rain = 0
KEA1 250730Z 20013KT 20/04 A3002 RMK A01 T02030041  RH  034%=      5-min Rain = 0
KEA1 250731Z 20012KT 20/04 A3002 RMK A01 T02040041  RH  034%=      5-min Rain = 0
KEA1 250732Z 20013KT 20/04 A3002 RMK A01 T02040041  RH  034%=      5-min Rain = 0
KEA1 250733Z 20012KT 20/04 A3002 RMK A01 T02040041  RH  034%=      5-min Rain = 0
KEA1 250734Z 20013KT 20/04 A3002 RMK A01 T02030041  RH  034%=      5-min Rain = 0
KEA1 250735Z 21012KT 20/04 A3002 RMK A01 T02030041  RH  034%=      5-min Rain = 0
KEA1 250736Z 21012KT 20/04 A3002 RMK A01 T02030041  RH  034%=      5-min Rain = 0
KEA1 250737Z 20013KT 20/04 A3003 RMK A01 T02030041  RH  034%=      5-min Rain = 0
KEA1 250738Z 21013KT 20/04 A3002 RMK A01 T02030041  RH  034%=      5-min Rain = 0
KEA1 250739Z 21013KT 20/04 A3002 RMK A01 T02040042  RH  034%=      5-min Rain = 0
KEA1 250740Z 20013KT 20/04 A3002 RMK A01 T02040042  RH  034%=      5-min Rain = 0
KEA1 250741Z 20011KT 20/04 A3002 RMK A01 T02040042  RH  034%=      5-min Rain = 0
KEA1 250742Z 20013KT 20/04 A3002 RMK A01 T02030041  RH  034%=      5-min Rain = 0
KEA1 250743Z 20013KT 20/04 A3002 RMK A01 T02030042  RH  035%=      5-min Rain = 0
KEA1 250744Z 21014KT 20/04 A3002 RMK A01 T02020042  RH  035%=      5-min Rain = 0
KEA1 250745Z 21012KT 20/04 A3002 RMK A01 T02030042  RH  035%=      5-min Rain = 0
KEA1 250746Z 21012KT 20/04 A3003 RMK A01 T02030042  RH  035%=      5-min Rain = 0
KEA1 250747Z 21013KT 20/04 A3002 RMK A01 T02030042  RH  035%=      5-min Rain = 0
KEA1 250748Z 21012KT 20/04 A3002 RMK A01 T02030041  RH  035%=      5-min Rain = 0
KEA1 250749Z 20013KT 20/04 A3002 RMK A01 T02020041  RH  035%=      5-min Rain = 0
KEA1 250750Z 20012KT 20/04 A3002 RMK A01 T02010041  RH  035%=      5-min Rain = 0
KEA1 250751Z 21013KT 20/04 A3002 RMK A01 T02010041  RH  035%=      5-min Rain = 0
KEA1 250752Z 20013KT 20/04 A3002 RMK A01 T02000041  RH  035%=      5-min Rain = 0
KEA1 250753Z 20012KT 20/04 A3002 RMK A01 T01990041  RH  035%=      5-min Rain = 0
KEA1 250754Z 21011KT 20/04 A3002 RMK A01 T01980041  RH  035%=      5-min Rain = 0
KEA1 250755Z 20012KT 20/04 A3002 RMK A01 T01980041  RH  035%=      5-min Rain = 0
KEA1 250756Z 20013KT 20/04 A3002 RMK A01 T01980042  RH  036%=      5-min Rain = 0
KEA1 250757Z 21011KT 20/04 A3002 RMK A01 T01980042  RH  036%=      5-min Rain = 0
KEA1 250758Z 21010KT 20/04 A3002 RMK A01 T01980042  RH  036%=      5-min Rain = 0
KEA1 250759Z 20011KT 20/04 A3002 RMK A01 T01970043  RH  036%=      5-min Rain = 0
KEA1 250800Z 20012KT 20/04 A3002 RMK A01 T01970044  RH  036%=      5-min Rain = 0
KEA1 250801Z 20011KT 20/04 A3002 RMK A01 T01960044  RH  037%=      5-min Rain = 0
KEA1 250802Z 20011KT 20/05 A3002 RMK A01 T01960045  RH  037%=      5-min Rain = 0
KEA1 250803Z 20011KT 20/05 A3002 RMK A01 T01950046  RH  037%=      5-min Rain = 0
KEA1 250804Z 20012KT 20/05 A3002 RMK A01 T01950047  RH  038%=      5-min Rain = 0
KEA1 250805Z 20012KT 20/05 A3002 RMK A01 T01950048  RH  038%=      5-min Rain = 0
KEA1 250806Z 21012KT 20/05 A3002 RMK A01 T01950049  RH  038%=      5-min Rain = 0
KEA1 250807Z 20012KT 20/05 A3002 RMK A01 T01960050  RH  038%=      5-min Rain = 0
KEA1 250808Z 20012KT 20/05 A3002 RMK A01 T01960051  RH  038%=      5-min Rain = 0
KEA1 250809Z 20012KT 20/05 A3002 RMK A01 T01960051  RH  038%=      5-min Rain = 0
KEA1 250810Z 20013KT 20/05 A3002 RMK A01 T01960052  RH  039%=      5-min Rain = 0
KEA1 250811Z 20012KT 20/05 A3002 RMK A01 T01960053  RH  039%=      5-min Rain = 0
KEA1 250812Z 21013KT 20/05 A3002 RMK A01 T01970054  RH  039%=      5-min Rain = 0
KEA1 250813Z 21012KT 20/06 A3002 RMK A01 T01970055  RH  039%=      5-min Rain = 0
KEA1 250814Z 21013KT 20/06 A3002 RMK A01 T01970055  RH  039%=      5-min Rain = 0
KEA1 250815Z 20012KT 20/06 A3002 RMK A01 T01980056  RH  039%=      5-min Rain = 0
KEA1 250816Z 21012KT 20/06 A3002 RMK A01 T01980056  RH  039%=      5-min Rain = 0
KEA1 250817Z 20013KT 20/06 A3002 RMK A01 T01980057  RH  040%=      5-min Rain = 0
KEA1 250818Z 20012KT 20/06 A3002 RMK A01 T01990057  RH  039%=      5-min Rain = 0
KEA1 250819Z 20011KT 20/06 A3002 RMK A01 T01980057  RH  040%=      5-min Rain = 0
KEA1 250820Z 20012KT 20/06 A3002 RMK A01 T01980057  RH  040%=      5-min Rain = 0
KEA1 250821Z 21013KT 20/06 A3002 RMK A01 T01970058  RH  040%=      5-min Rain = 0
KEA1 250822Z 21012KT 20/06 A3002 RMK A01 T01980059  RH  040%=      5-min Rain = 0
KEA1 250823Z 20013KT 20/06 A3002 RMK A01 T01980060  RH  041%=      5-min Rain = 0
KEA1 250824Z 20015KT 20/06 A3002 RMK A01 T01980062  RH  041%=      5-min Rain = 0
KEA1 250825Z 20014KT 20/06 A3002 RMK A01 T01990064  RH  041%=      5-min Rain = 0
KEA1 250826Z 20014KT 20/06 A3002 RMK A01 T02000064  RH  041%=      5-min Rain = 0
KEA1 250827Z 20012KT 20/06 A3002 RMK A01 T02000064  RH  041%=      5-min Rain = 0
KEA1 250828Z 20011KT 20/06 A3002 RMK A01 T01990064  RH  041%=      5-min Rain = 0
KEA1 250829Z 21013KT 20/07 A3002 RMK A01 T01980065  RH  042%=      5-min Rain = 0
KEA1 250830Z 20013KT 20/07 A3002 RMK A01 T01980066  RH  042%=      5-min Rain = 0
KEA1 250831Z 20012KT 20/07 A3002 RMK A01 T01980067  RH  043%=      5-min Rain = 0
KEA1 250832Z 20013KT 20/07 A3002 RMK A01 T01970068  RH  043%=      5-min Rain = 0
KEA1 250833Z 21011KT 20/07 A3002 RMK A01 T01970069  RH  043%=      5-min Rain = 0
KEA1 250834Z 20011KT 20/07 A3002 RMK A01 T01970070  RH  043%=      5-min Rain = 0
KEA1 250835Z 20013KT 20/07 A3002 RMK A01 T01970070  RH  044%=      5-min Rain = 0
KEA1 250836Z 20014KT 20/07 A3001 RMK A01 T01980072  RH  044%=      5-min Rain = 0
KEA1 250837Z 20013KT 20/07 A3001 RMK A01 T01990073  RH  044%=      5-min Rain = 0
KEA1 250838Z 20013KT 20/07 A3002 RMK A01 T01990073  RH  044%=      5-min Rain = 0
KEA1 250839Z 20013KT 20/07 A3002 RMK A01 T01980074  RH  045%=      5-min Rain = 0
KEA1 250840Z 21014KT 20/07 A3002 RMK A01 T01990074  RH  045%=      5-min Rain = 0
KEA1 250841Z 21013KT 20/08 A3001 RMK A01 T01990075  RH  045%=      5-min Rain = 0
KEA1 250842Z 20012KT 20/08 A3002 RMK A01 T01990076  RH  045%=      5-min Rain = 0
KEA1 250843Z 20012KT 20/08 A3002 RMK A01 T01990076  RH  045%=      5-min Rain = 0
KEA1 250844Z 20012KT 20/08 A3002 RMK A01 T01990077  RH  045%=      5-min Rain = 0
KEA1 250845Z 21013KT 20/08 A3002 RMK A01 T01990078  RH  045%=      5-min Rain = 0
KEA1 250846Z 21013KT 20/08 A3002 RMK A01 T01990079  RH  046%=      5-min Rain = 0
KEA1 250847Z 20013KT 20/08 A3001 RMK A01 T02000080  RH  046%=      5-min Rain = 0
KEA1 250848Z 20013KT 20/08 A3002 RMK A01 T02000080  RH  046%=      5-min Rain = 0
KEA1 250849Z 21015KT 20/08 A3001 RMK A01 T02000080  RH  046%=      5-min Rain = 0
KEA1 250850Z 21015KT 20/08 A3001 RMK A01 T02000081  RH  046%=      5-min Rain = 0
KEA1 250851Z 21014KT 20/08 A3001 RMK A01 T02000081  RH  046%=      5-min Rain = 0
KEA1 250852Z 20012KT 20/08 A3002 RMK A01 T02000081  RH  046%=      5-min Rain = 0
KEA1 250853Z 20012KT 20/08 A3002 RMK A01 T01990081  RH  046%=      5-min Rain = 0
KEA1 250854Z 20013KT 20/08 A3001 RMK A01 T01990082  RH  047%=      5-min Rain = 0
KEA1 250855Z 20013KT 20/08 A3001 RMK A01 T01990082  RH  047%=      5-min Rain = 0
KEA1 250856Z 21013KT 20/08 A3001 RMK A01 T01980083  RH  047%=      5-min Rain = 0
KEA1 250857Z 21014KT 20/08 A3002 RMK A01 T01990084  RH  047%=      5-min Rain = 0
KEA1 250858Z 21011KT 20/08 A3001 RMK A01 T01990084  RH  047%=      5-min Rain = 0
KEA1 250859Z 20012KT 20/08 A3001 RMK A01 T01990084  RH  047%=      5-min Rain = 0
KEA1 250900Z 21012KT 20/09 A3001 RMK A01 T01990085  RH  048%=      5-min Rain = 0
KEA1 250901Z 20013KT 20/08 A3001 RMK A01 T01980084  RH  048%=      5-min Rain = 0
KEA1 250902Z 21011KT 20/09 A3001 RMK A01 T01980085  RH  048%=      5-min Rain = 0
KEA1 250903Z 21012KT 20/09 A3001 RMK A01 T01980085  RH  048%=      5-min Rain = 0
KEA1 250904Z 21012KT 20/09 A3001 RMK A01 T01980085  RH  048%=      5-min Rain = 0
KEA1 250905Z 21012KT 20/09 A3001 RMK A01 T01970086  RH  048%=      5-min Rain = 0
KEA1 250906Z 21011KT 20/09 A3001 RMK A01 T01980086  RH  048%=      5-min Rain = 0
KEA1 250907Z 20012KT 20/09 A3001 RMK A01 T01980086  RH  048%=      5-min Rain = 0
KEA1 250908Z 20015KT 20/09 A3001 RMK A01 T01970086  RH  049%=      5-min Rain = 0
KEA1 250909Z 21012KT 20/09 A3001 RMK A01 T01980087  RH  049%=      5-min Rain = 0
KEA1 250910Z 21013KT 20/09 A3001 RMK A01 T01980087  RH  049%=      5-min Rain = 0
KEA1 250911Z 21013KT 20/09 A3001 RMK A01 T01980087  RH  049%=      5-min Rain = 0
KEA1 250912Z 21012KT 20/09 A3001 RMK A01 T01980089  RH  049%=      5-min Rain = 0
KEA1 250913Z 21011KT 20/09 A3001 RMK A01 T01990089  RH  049%=      5-min Rain = 0
KEA1 250914Z 21012KT 20/09 A3001 RMK A01 T01980089  RH  049%=      5-min Rain = 0
KEA1 250915Z 21012KT 20/09 A3001 RMK A01 T01980089  RH  049%=      5-min Rain = 0
KEA1 250916Z 21012KT 20/09 A3001 RMK A01 T01980090  RH  050%=      5-min Rain = 0
KEA1 250917Z 21012KT 20/09 A3001 RMK A01 T01980091  RH  050%=      5-min Rain = 0
KEA1 250918Z 20014KT 20/09 A3001 RMK A01 T01980090  RH  050%=      5-min Rain = 0
KEA1 250919Z 21014KT 20/09 A3001 RMK A01 T01980092  RH  050%=      5-min Rain = 0
KEA1 250920Z 21013KT 20/09 A3001 RMK A01 T01990093  RH  050%=      5-min Rain = 0
KEA1 250921Z 21014KT 20/09 A3001 RMK A01 T01990093  RH  050%=      5-min Rain = 0
KEA1 250922Z 21013KT 20/09 A3001 RMK A01 T02000094  RH  050%=      5-min Rain = 0
KEA1 250923Z 21013KT 20/09 A3001 RMK A01 T01990093  RH  050%=      5-min Rain = 0
KEA1 250924Z 21012KT 20/09 A3001 RMK A01 T01990094  RH  051%=      5-min Rain = 0
KEA1 250925Z 21012KT 20/09 A3001 RMK A01 T01990094  RH  051%=      5-min Rain = 0
KEA1 250926Z 21013KT 20/10 A3001 RMK A01 T01990095  RH  051%=      5-min Rain = 0
KEA1 250927Z 21014KT 20/10 A3001 RMK A01 T01990095  RH  051%=      5-min Rain = 0
KEA1 250928Z 21013KT 20/10 A3001 RMK A01 T01990095  RH  051%=      5-min Rain = 0
KEA1 250929Z 21013KT 20/10 A3001 RMK A01 T01990095  RH  051%=      5-min Rain = 0
KEA1 250930Z 21013KT 20/10 A30 RMK A01 T01980096  RH  052%=      5-min Rain = 0
KEA1 250931Z 21014KT 20/10 A30 RMK A01 T01990097  RH  052%=      5-min Rain = 0
KEA1 250932Z 21012KT 20/10 A30 RMK A01 T01990097  RH  051%=      5-min Rain = 0
KEA1 250933Z 20014KT 20/10 A30 RMK A01 T01990097  RH  052%=      5-min Rain = 0
KEA1 250934Z 21013KT 20/10 A30 RMK A01 T01990097  RH  052%=      5-min Rain = 0
KEA1 250935Z 21011G16KT 20/10 A3001 RMK A01 T01990097  RH  052%=      5-min Rain = 0
KEA1 250936Z 21011KT 20/10 A3001 RMK A01 T01980097  RH  052%=      5-min Rain = 0
KEA1 250937Z 21015KT 20/10 A30 RMK A01 T01980097  RH  052%=      5-min Rain = 0
KEA1 250938Z 21013KT 20/10 A30 RMK A01 T01980097  RH  052%=      5-min Rain = 0
KEA1 250939Z 21012KT 20/10 A3001 RMK A01 T01990097  RH  052%=      5-min Rain = 0
KEA1 250940Z 21013G18KT 20/10 A30 RMK A01 T01980097  RH  052%=      5-min Rain = 0
KEA1 250941Z 21016KT 20/10 A30 RMK A01 T01980097  RH  052%=      5-min Rain = 0
KEA1 250942Z 21015KT 20/10 A30 RMK A01 T01980098  RH  052%=      5-min Rain = 0
KEA1 250943Z 21014KT 20/10 A30 RMK A01 T02000097  RH  052%=      5-min Rain = 0
KEA1 250944Z 21014KT 20/10 A30 RMK A01 T01990097  RH  052%=      5-min Rain = 0
KEA1 250945Z 21014KT 20/10 A30 RMK A01 T01990097  RH  052%=      5-min Rain = 0
KEA1 250946Z 21013KT 20/10 A30 RMK A01 T01980097  RH  052%=      5-min Rain = 0
KEA1 250947Z 21014KT 20/10 A30 RMK A01 T01980097  RH  052%=      5-min Rain = 0
KEA1 250948Z 21013KT 20/10 A30 RMK A01 T01980097  RH  052%=      5-min Rain = 0
KEA1 250949Z 21015KT 20/10 A30 RMK A01 T01980098  RH  052%=      5-min Rain = 0
KEA1 250950Z 21013KT 20/10 A30 RMK A01 T01980098  RH  052%=      5-min Rain = 0
KEA1 250951Z 20012KT 20/10 A30 RMK A01 T01980098  RH  052%=      5-min Rain = 0
KEA1 250952Z 21014KT 20/10 A30 RMK A01 T01970098  RH  053%=      5-min Rain = 0
KEA1 250953Z 20015KT 20/10 A30 RMK A01 T01970098  RH  053%=      5-min Rain = 0
KEA1 250954Z 21014KT 20/10 A3001 RMK A01 T01970098  RH  053%=      5-min Rain = 0
KEA1 250955Z 21013KT 20/10 A3001 RMK A01 T01970098  RH  053%=      5-min Rain = 0
KEA1 250956Z 21013KT 20/10 A3001 RMK A01 T01970098  RH  053%=      5-min Rain = 0
KEA1 250957Z 21014KT 20/10 A3001 RMK A01 T01970099  RH  053%=      5-min Rain = 0
KEA1 250958Z 21013KT 20/10 A3001 RMK A01 T01970099  RH  053%=      5-min Rain = 0
KEA1 250959Z 21014KT 20/10 A3001 RMK A01 T01960099  RH  053%=      5-min Rain = 0
KEA1 251000Z 21012KT 20/10 A3001 RMK A01 T01960099  RH  053%=      5-min Rain = 0
KEA1 251001Z 20012KT 20/10 A3001 RMK A01 T01960099  RH  054%=      5-min Rain = 0
KEA1 251002Z 21014KT 20/10 A3001 RMK A01 T01960099  RH  054%=      5-min Rain = 0
KEA1 251003Z 21013KT 20/10 A3001 RMK A01 T01960100  RH  054%=      5-min Rain = 0
KEA1 251004Z 20012KT 20/10 A3001 RMK A01 T01960100  RH  054%=      5-min Rain = 0
KEA1 251005Z 21014KT 20/10 A3001 RMK A01 T01960100  RH  054%=      5-min Rain = 0
KEA1 251006Z 21013KT 20/10 A3001 RMK A01 T01970101  RH  054%=      5-min Rain = 0
KEA1 251007Z 21014KT 20/10 A3001 RMK A01 T01970101  RH  054%=      5-min Rain = 0
KEA1 251008Z 21014KT 20/10 A3001 RMK A01 T01980101  RH  054%=      5-min Rain = 0
KEA1 251009Z 21015KT 20/10 A3001 RMK A01 T01980102  RH  054%=      5-min Rain = 0
KEA1 251010Z 21013KT 20/10 A3001 RMK A01 T01990102  RH  054%=      5-min Rain = 0
KEA1 251011Z 21013KT 20/10 A3001 RMK A01 T01990102  RH  054%=      5-min Rain = 0
KEA1 251012Z 21014KT 20/10 A3001 RMK A01 T01980102  RH  054%=      5-min Rain = 0
KEA1 251013Z 21014KT 20/10 A3001 RMK A01 T01980102  RH  054%=      5-min Rain = 0
KEA1 251014Z 21013KT 20/10 A3001 RMK A01 T01980103  RH  054%=      5-min Rain = 0
KEA1 251015Z 21014KT 20/10 A3001 RMK A01 T01990103  RH  054%=      5-min Rain = 0
KEA1 251016Z 21015KT 20/10 A3001 RMK A01 T01990103  RH  054%=      5-min Rain = 0
KEA1 251017Z 21015KT 20/10 A3001 RMK A01 T02000104  RH  054%=      5-min Rain = 0
KEA1 251018Z 21016G22KT 20/10 A3001 RMK A01 T02010104  RH  054%=      5-min Rain = 0
KEA1 251019Z 21015KT 20/10 A3001 RMK A01 T02010104  RH  053%=      5-min Rain = 0
KEA1 251020Z 21017KT 20/10 A3001 RMK A01 T02010103  RH  053%=      5-min Rain = 0
KEA1 251021Z 21018G24KT 20/10 A3001 RMK A01 T02010104  RH  054%=      5-min Rain = 0
KEA1 251022Z 21016KT 20/10 A3001 RMK A01 T02010104  RH  053%=      5-min Rain = 0
KEA1 251023Z 21019KT 20/10 A30 RMK A01 T02010104  RH  054%=      5-min Rain = 0
KEA1 251024Z 21017KT 20/10 A3001 RMK A01 T02020104  RH  053%=      5-min Rain = 0
KEA1 251025Z 21017KT 20/10 A3001 RMK A01 T02020104  RH  054%=      5-min Rain = 0
KEA1 251026Z 21015KT 20/10 A3001 RMK A01 T02010104  RH  053%=      5-min Rain = 0
KEA1 251027Z 21016KT 20/10 A3001 RMK A01 T02010104  RH  054%=      5-min Rain = 0
KEA1 251028Z 21017KT 20/10 A3001 RMK A01 T02000104  RH  054%=      5-min Rain = 0
KEA1 251029Z 21016KT 20/11 A3001 RMK A01 T02000105  RH  054%=      5-min Rain = 0
KEA1 251030Z 21016KT 20/11 A3001 RMK A01 T02000105  RH  054%=      5-min Rain = 0
KEA1 251031Z 21017KT 20/11 A3001 RMK A01 T02010106  RH  054%=      5-min Rain = 0
KEA1 251032Z 21016KT 20/11 A3001 RMK A01 T02010105  RH  054%=      5-min Rain = 0
KEA1 251033Z 21016KT 20/10 A3001 RMK A01 T02000104  RH  054%=      5-min Rain = 0
KEA1 251034Z 21015KT 20/11 A3001 RMK A01 T01990105  RH  055%=      5-min Rain = 0
KEA1 251035Z 21016KT 20/11 A3001 RMK A01 T01990106  RH  055%=      5-min Rain = 0
KEA1 251036Z 21013G18KT 20/11 A3001 RMK A01 T01990105  RH  055%=      5-min Rain = 0
KEA1 251037Z 21017KT 20/11 A3001 RMK A01 T01980105  RH  055%=      5-min Rain = 0
KEA1 251038Z 21018KT 20/11 A30 RMK A01 T01980106  RH  055%=      5-min Rain = 0
KEA1 251039Z 21015KT 20/11 A3001 RMK A01 T02000107  RH  055%=      5-min Rain = 0
KEA1 251040Z 21016KT 20/11 A3001 RMK A01 T01990106  RH  055%=      5-min Rain = 0
KEA1 251041Z 21016KT 20/11 A3001 RMK A01 T01980106  RH  055%=      5-min Rain = 0
KEA1 251042Z 21014KT 20/11 A3001 RMK A01 T01980107  RH  056%=      5-min Rain = 0
KEA1 251043Z 21016G21KT 20/11 A3001 RMK A01 T01980106  RH  055%=      5-min Rain = 0
KEA1 251044Z 21015KT 20/11 A3001 RMK A01 T01970106  RH  056%=      5-min Rain = 0
KEA1 251045Z 21018KT 20/11 A3001 RMK A01 T01960106  RH  056%=      5-min Rain = 0
KEA1 251046Z 21015KT 20/11 A3001 RMK A01 T01960106  RH  056%=      5-min Rain = 0
KEA1 251047Z 21014KT 20/11 A3001 RMK A01 T01960106  RH  056%=      5-min Rain = 0
KEA1 251048Z 21013KT 20/11 A3001 RMK A01 T01960106  RH  056%=      5-min Rain = 0
KEA1 251049Z 21019KT 20/11 A3001 RMK A01 T01950107  RH  057%=      5-min Rain = 0
KEA1 251050Z 21019KT 20/11 A3001 RMK A01 T01970109  RH  057%=      5-min Rain = 0
KEA1 251051Z 21017G22KT 20/11 A3001 RMK A01 T02000109  RH  056%=      5-min Rain = 0
KEA1 251052Z 21017KT 20/11 A3001 RMK A01 T02000108  RH  055%=      5-min Rain = 0
KEA1 251053Z 21017KT 20/11 A3001 RMK A01 T01990108  RH  056%=      5-min Rain = 0
KEA1 251054Z 21018KT 20/11 A3001 RMK A01 T01990109  RH  056%=      5-min Rain = 0
KEA1 251055Z 21017KT 20/11 A3001 RMK A01 T02000109  RH  056%=      5-min Rain = 0
KEA1 251056Z 21016G21KT 20/11 A3001 RMK A01 T02000109  RH  056%=      5-min Rain = 0
KEA1 251057Z 21019G24KT 20/11 A3001 RMK A01 T02000110  RH  056%=      5-min Rain = 0
KEA1 251058Z 22017G24KT 20/11 A3001 RMK A01 T02000110  RH  056%=      5-min Rain = 0
KEA1 251059Z 21019KT 20/11 A3001 RMK A01 T02010110  RH  056%=      5-min Rain = 0
KEA1 251100Z 21017KT 20/11 A3001 RMK A01 T02010110  RH  056%=      5-min Rain = 0
KEA1 251101Z 21017KT 20/11 A3001 RMK A01 T02010109  RH  056%=      5-min Rain = 0
KEA1 251102Z 21017KT 20/11 A3001 RMK A01 T02000110  RH  056%=      5-min Rain = 0
KEA1 251103Z 21017KT 20/11 A3001 RMK A01 T02000110  RH  056%=      5-min Rain = 0
KEA1 251104Z 21016KT 20/11 A3001 RMK A01 T02000110  RH  056%=      5-min Rain = 0
KEA1 251105Z 21016KT 20/11 A3001 RMK A01 T01990110  RH  056%=      5-min Rain = 0
KEA1 251106Z 21016KT 20/11 A3001 RMK A01 T01990111  RH  057%=      5-min Rain = 0
KEA1 251107Z 21014KT 20/11 A3002 RMK A01 T02000111  RH  057%=      5-min Rain = 0
KEA1 251108Z 21017KT 20/11 A3001 RMK A01 T01990110  RH  056%=      5-min Rain = 0
KEA1 251109Z 21017KT 20/11 A3001 RMK A01 T01990111  RH  057%=      5-min Rain = 0
KEA1 251110Z 21018KT 20/11 A3001 RMK A01 T02000111  RH  057%=      5-min Rain = 0
KEA1 251111Z 21016KT 20/11 A3002 RMK A01 T02000110  RH  056%=      5-min Rain = 0
KEA1 251112Z 21014G19KT 20/11 A3002 RMK A01 T02000111  RH  057%=      5-min Rain = 0
KEA1 251113Z 21013KT 20/11 A3002 RMK A01 T01990111  RH  057%=      5-min Rain = 0
KEA1 251114Z 21013G18KT 20/11 A3002 RMK A01 T01980111  RH  057%=      5-min Rain = 0
KEA1 251115Z 21017KT 20/11 A3002 RMK A01 T01980111  RH  057%=      5-min Rain = 0
KEA1 251116Z 21015KT 20/11 A3002 RMK A01 T01980111  RH  057%=      5-min Rain = 0
KEA1 251117Z 20015KT 20/11 A3002 RMK A01 T01980111  RH  057%=      5-min Rain = 0
KEA1 251118Z 21015G20KT 20/11 A3002 RMK A01 T01980111  RH  057%=      5-min Rain = 0
KEA1 251119Z 21018KT 20/11 A3002 RMK A01 T01980111  RH  057%=      5-min Rain = 0
KEA1 251120Z 21017KT 20/11 A3002 RMK A01 T01980111  RH  057%=      5-min Rain = 0
KEA1 251121Z 21017KT 20/11 A3002 RMK A01 T01990112  RH  057%=      5-min Rain = 0
KEA1 251122Z 21018KT 20/11 A3002 RMK A01 T01990111  RH  057%=      5-min Rain = 0
KEA1 251123Z 21016KT 20/11 A3002 RMK A01 T01990112  RH  057%=      5-min Rain = 0
KEA1 251124Z 21019KT 20/11 A3002 RMK A01 T01990111  RH  057%=      5-min Rain = 0
KEA1 251125Z 21017KT 20/11 A3002 RMK A01 T01990112  RH  057%=      5-min Rain = 0
KEA1 251126Z 21016G21KT 20/11 A3002 RMK A01 T01990111  RH  057%=      5-min Rain = 0
KEA1 251127Z 21018G23KT 20/11 A3002 RMK A01 T01980111  RH  057%=      5-min Rain = 0
KEA1 251128Z 21015G20KT 20/11 A3002 RMK A01 T01990112  RH  057%=      5-min Rain = 0
KEA1 251129Z 21014KT 20/11 A3002 RMK A01 T01990112  RH  057%=      5-min Rain = 0
KEA1 251130Z 22016KT 20/11 A3002 RMK A01 T01990112  RH  057%=      5-min Rain = 0
KEA1 251131Z 22014G19KT 20/11 A3002 RMK A01 T02000112  RH  057%=      5-min Rain = 0
KEA1 251132Z 22016G23KT 20/11 A3002 RMK A01 T02000112  RH  057%=      5-min Rain = 0
KEA1 251133Z 22014KT 20/11 A3002 RMK A01 T02000112  RH  057%=      5-min Rain = 0
KEA1 251134Z 22012KT 20/11 A3002 RMK A01 T02000113  RH  057%=      5-min Rain = 0
KEA1 251135Z 22014KT 20/11 A3002 RMK A01 T02000113  RH  057%=      5-min Rain = 0
KEA1 251136Z 22013KT 20/11 A3002 RMK A01 T01990112  RH  057%=      5-min Rain = 0
KEA1 251137Z 22016KT 20/11 A3002 RMK A01 T02000113  RH  057%=      5-min Rain = 0
KEA1 251138Z 22014G19KT 20/11 A3003 RMK A01 T02010113  RH  057%=      5-min Rain = 0
KEA1 251139Z 22014KT 20/11 A3003 RMK A01 T02020113  RH  057%=      5-min Rain = 0
KEA1 251140Z 22014G19KT 20/11 A3003 RMK A01 T02010113  RH  057%=      5-min Rain = 0
KEA1 251141Z 22015KT 20/11 A3003 RMK A01 T02000112  RH  057%=      5-min Rain = 0
KEA1 251142Z 22013KT 20/11 A3003 RMK A01 T02000113  RH  057%=      5-min Rain = 0
KEA1 251143Z 24011KT 20/11 A3003 RMK A01 T02000113  RH  057%=      5-min Rain = 0
KEA1 251144Z 23011KT 20/11 A3003 RMK A01 T01960112  RH  058%=      5-min Rain = 0
KEA1 251145Z 24010KT 19/11 A3003 RMK A01 T01940112  RH  059%=      5-min Rain = 0
KEA1 251146Z 25009KT 19/11 A3003 RMK A01 T01920111  RH  059%=      5-min Rain = 0
KEA1 251147Z 26009KT 19/11 A3004 RMK A01 T01900109  RH  059%=      5-min Rain = 0
KEA1 251148Z 25008KT 19/11 A3004 RMK A01 T01880108  RH  060%=      5-min Rain = 0
KEA1 251149Z 25009KT 19/11 A3004 RMK A01 T01850107  RH  060%=      5-min Rain = 0
KEA1 251150Z 25009KT 18/11 A3004 RMK A01 T01830107  RH  061%=      5-min Rain = 0
KEA1 251151Z 25008KT 18/11 A3004 RMK A01 T01820107  RH  062%=      5-min Rain = 0
KEA1 251152Z 24008KT 18/11 A3004 RMK A01 T01800106  RH  062%=      5-min Rain = 0
KEA1 251153Z 25009KT 18/11 A3004 RMK A01 T01800107  RH  062%=      5-min Rain = 0
KEA1 251154Z 25008KT 18/11 A3004 RMK A01 T01790106  RH  062%=      5-min Rain = 0
KEA1 251155Z 24009KT 18/11 A3004 RMK A01 T01780106  RH  063%=      5-min Rain = 0
KEA1 251156Z 24009KT 18/11 A3004 RMK A01 T01780107  RH  063%=      5-min Rain = 0
KEA1 251157Z 24011KT 18/11 A3004 RMK A01 T01780107  RH  063%=      5-min Rain = 0
KEA1 251158Z 24010KT 18/11 A3004 RMK A01 T01790108  RH  063%=      5-min Rain = 0
KEA1 251159Z 25011KT 18/11 A3004 RMK A01 T01800108  RH  062%=      5-min Rain = 0
KEA1 251200Z 25009KT 18/11 A3004 RMK A01 T01800107  RH  063%=      5-min Rain = 0
KEA1 251201Z 25008KT 18/11 A3004 RMK A01 T01780106  RH  063%=      5-min Rain = 0
KEA1 251202Z 25008KT 18/11 A3004 RMK A01 T01760106  RH  063%=      5-min Rain = 0
KEA1 251203Z 25008KT 18/11 A3004 RMK A01 T01750106  RH  064%=      5-min Rain = 0
KEA1 251204Z 25008KT 17/11 A3004 RMK A01 T01730106  RH  065%=      5-min Rain = 0
KEA1 251205Z 25008KT 17/11 A3004 RMK A01 T01720106  RH  065%=      5-min Rain = 0
KEA1 251206Z 24008KT 17/11 A3004 RMK A01 T01710106  RH  066%=      5-min Rain = 0
KEA1 251207Z 24009KT 17/11 A3004 RMK A01 T01700106  RH  066%=      5-min Rain = 0
KEA1 251208Z 24009KT 17/11 A3004 RMK A01 T01710106  RH  066%=      5-min Rain = 0
KEA1 251209Z 24009KT 17/11 A3004 RMK A01 T01710106  RH  065%=      5-min Rain = 0
KEA1 251210Z 24010KT 17/11 A3004 RMK A01 T01710107  RH  066%=      5-min Rain = 0
KEA1 251211Z 25009KT 17/11 A3004 RMK A01 T01720107  RH  065%=      5-min Rain = 0
KEA1 251212Z 24008KT 17/11 A3004 RMK A01 T01720106  RH  065%=      5-min Rain = 0
KEA1 251213Z 24009KT 17/11 A3004 RMK A01 T01700105  RH  066%=      5-min Rain = 0
KEA1 251214Z 24009KT 17/11 A3004 RMK A01 T01700106  RH  066%=      5-min Rain = 0
KEA1 251215Z 24009KT 17/11 A3004 RMK A01 T01710106  RH  066%=      5-min Rain = 0
KEA1 251216Z 24010KT 17/11 A3004 RMK A01 T01710107  RH  066%=      5-min Rain = 0
KEA1 251217Z 24009KT 17/11 A3004 RMK A01 T01720107  RH  065%=      5-min Rain = 0
KEA1 251218Z 24010KT 17/11 A3004 RMK A01 T01720107  RH  065%=      5-min Rain = 0
KEA1 251219Z 24009KT 17/11 A3004 RMK A01 T01730107  RH  065%=      5-min Rain = 0
KEA1 251220Z 24009KT 17/11 A3004 RMK A01 T01730107  RH  065%=      5-min Rain = 0
KEA1 251221Z 23010KT 17/11 A3004 RMK A01 T01730108  RH  065%=      5-min Rain = 0
KEA1 251222Z 24011KT 17/11 A3004 RMK A01 T01730109  RH  066%=      5-min Rain = 0
KEA1 251223Z 24010KT 18/11 A3004 RMK A01 T01750109  RH  065%=      5-min Rain = 0
KEA1 251224Z 24009KT 18/11 A3004 RMK A01 T01750108  RH  065%=      5-min Rain = 0
KEA1 251225Z 24011KT 18/11 A3004 RMK A01 T01750109  RH  065%=      5-min Rain = 0
KEA1 251226Z 24009KT 18/11 A3004 RMK A01 T01750109  RH  065%=      5-min Rain = 0
KEA1 251227Z 23011KT 18/11 A3004 RMK A01 T01750109  RH  065%=      5-min Rain = 0
KEA1 251228Z 24010KT 18/11 A3004 RMK A01 T01760110  RH  065%=      5-min Rain = 0
KEA1 251229Z 23011KT 18/11 A3004 RMK A01 T01770110  RH  065%=      5-min Rain = 0
KEA1 251230Z 23011KT 18/11 A3004 RMK A01 T01770110  RH  065%=      5-min Rain = 0
KEA1 251231Z 24011KT 18/11 A3004 RMK A01 T01780111  RH  065%=      5-min Rain = 0
KEA1 251232Z 24012KT 18/11 A3004 RMK A01 T01780111  RH  065%=      5-min Rain = 0
KEA1 251233Z 23012KT 18/11 A3004 RMK A01 T01790111  RH  064%=      5-min Rain = 0
KEA1 251234Z 23013KT 18/11 A3004 RMK A01 T01800111  RH  064%=      5-min Rain = 0
KEA1 251235Z 23014G20KT 18/11 A3004 RMK A01 T01810111  RH  063%=      5-min Rain = 0
KEA1 251236Z 23012KT 18/11 A3004 RMK A01 T01830111  RH  063%=      5-min Rain = 0
KEA1 251237Z 22012G17KT 18/11 A3004 RMK A01 T01830111  RH  063%=      5-min Rain = 0
KEA1 251238Z 23013KT 19/11 A3004 RMK A01 T01850111  RH  062%=      5-min Rain = 0
KEA1 251239Z 23013KT 19/11 A3004 RMK A01 T01860111  RH  062%=      5-min Rain = 0
KEA1 251240Z 22012KT 19/11 A3004 RMK A01 T01860111  RH  061%=      5-min Rain = 0
KEA1 251241Z 23014KT 19/11 A3004 RMK A01 T01860111  RH  062%=      5-min Rain = 0
KEA1 251242Z 23013KT 19/11 A3004 RMK A01 T01850111  RH  062%=      5-min Rain = 0
KEA1 251243Z 23014KT 19/11 A3004 RMK A01 T01850111  RH  062%=      5-min Rain = 0
KEA1 251244Z 22014KT 19/11 A3004 RMK A01 T01860111  RH  062%=      5-min Rain = 0
KEA1 251245Z 22013KT 19/11 A3004 RMK A01 T01870111  RH  061%=      5-min Rain = 0
KEA1 251246Z 22014G21KT 19/11 A3004 RMK A01 T01870111  RH  061%=      5-min Rain = 0
KEA1 251247Z 22014G19KT 19/11 A3004 RMK A01 T01880111  RH  061%=      5-min Rain = 0
KEA1 251248Z 23013KT 19/11 A3004 RMK A01 T01890111  RH  060%=      5-min Rain = 0
KEA1 251249Z 23012KT 19/11 A3004 RMK A01 T01880110  RH  061%=      5-min Rain = 0
KEA1 251250Z 22011KT 19/11 A3004 RMK A01 T01850110  RH  062%=      5-min Rain = 0
KEA1 251251Z 22012KT 18/11 A3004 RMK A01 T01830110  RH  062%=      5-min Rain = 0
KEA1 251252Z 23012G17KT 18/11 A3004 RMK A01 T01830110  RH  062%=      5-min Rain = 0
KEA1 251253Z 22013KT 18/11 A3004 RMK A01 T01830111  RH  062%=      5-min Rain = 0
KEA1 251254Z 23014KT 19/11 A3004 RMK A01 T01850110  RH  062%=      5-min Rain = 0
KEA1 251255Z 22013KT 19/11 A3004 RMK A01 T01860111  RH  062%=      5-min Rain = 0
KEA1 251256Z 23012KT 19/11 A3004 RMK A01 T01850111  RH  062%=      5-min Rain = 0
KEA1 251257Z 23013G18KT 18/11 A3004 RMK A01 T01840110  RH  062%=      5-min Rain = 0
KEA1 251258Z 23012KT 18/11 A3004 RMK A01 T01840110  RH  062%=      5-min Rain = 0
KEA1 251259Z 23011KT 18/11 A3004 RMK A01 T01810110  RH  063%=      5-min Rain = 0
KEA1 251300Z 23012KT 18/11 A3004 RMK A01 T01800110  RH  063%=      5-min Rain = 0
KEA1 251301Z 22013KT 18/11 A3004 RMK A01 T01820111  RH  063%=      5-min Rain = 0
KEA1 251302Z 23010KT 18/11 A3004 RMK A01 T01840111  RH  062%=      5-min Rain = 0
KEA1 251303Z 22012KT 18/11 A3004 RMK A01 T01820111  RH  063%=      5-min Rain = 0
KEA1 251304Z 22013KT 18/11 A3004 RMK A01 T01840112  RH  063%=      5-min Rain = 0
KEA1 251305Z 23011G16KT 19/11 A3004 RMK A01 T01880112  RH  062%=      5-min Rain = 0
KEA1 251306Z 22012KT 19/11 A3004 RMK A01 T01880112  RH  061%=      5-min Rain = 0
KEA1 251307Z 22012KT 19/11 A3004 RMK A01 T01880112  RH  061%=      5-min Rain = 0
KEA1 251308Z 22012KT 19/11 A3004 RMK A01 T01880111  RH  061%=      5-min Rain = 0
KEA1 251309Z 22011KT 19/11 A3004 RMK A01 T01870111  RH  061%=      5-min Rain = 0
KEA1 251310Z 22012KT 19/11 A3004 RMK A01 T01880112  RH  061%=      5-min Rain = 0
KEA1 251311Z 22015KT 19/11 A3004 RMK A01 T01890112  RH  061%=      5-min Rain = 0
KEA1 251312Z 21015G20KT 19/11 A3004 RMK A01 T01920112  RH  060%=      5-min Rain = 0
KEA1 251313Z 22013KT 19/11 A3004 RMK A01 T01930112  RH  059%=      5-min Rain = 0
KEA1 251314Z 21014KT 19/11 A3004 RMK A01 T01940112  RH  059%=      5-min Rain = 0
KEA1 251315Z 21013KT 19/11 A3004 RMK A01 T01930111  RH  059%=      5-min Rain = 0
KEA1 251316Z 21012KT 19/11 A3004 RMK A01 T01930111  RH  059%=      5-min Rain = 0
KEA1 251317Z 22012KT 19/11 A3004 RMK A01 T01930112  RH  059%=      5-min Rain = 0
KEA1 251318Z 21013G20KT 19/11 A3004 RMK A01 T01940111  RH  059%=      5-min Rain = 0
KEA1 251319Z 21012KT 19/11 A3004 RMK A01 T01940111  RH  058%=      5-min Rain = 0
KEA1 251320Z 21011KT 19/11 A3004 RMK A01 T01940111  RH  058%=      5-min Rain = 0
KEA1 251321Z 22013KT 19/11 A3004 RMK A01 T01940111  RH  058%=      5-min Rain = 0
KEA1 251322Z 21013KT 20/11 A3004 RMK A01 T01950111  RH  058%=      5-min Rain = 0
KEA1 251323Z 22011KT 20/11 A3004 RMK A01 T01950111  RH  058%=      5-min Rain = 0
KEA1 251324Z 22013KT 20/11 A3004 RMK A01 T01960111  RH  058%=      5-min Rain = 0
KEA1 251325Z 22012KT 20/11 A3004 RMK A01 T01970111  RH  057%=      5-min Rain = 0
KEA1 251326Z 21012KT 20/11 A3004 RMK A01 T01980111  RH  057%=      5-min Rain = 0
KEA1 251327Z 22012KT 20/11 A3004 RMK A01 T01980111  RH  057%=      5-min Rain = 0
KEA1 251328Z 22012KT 20/11 A3004 RMK A01 T01990111  RH  057%=      5-min Rain = 0
KEA1 251329Z 22014KT 20/11 A3004 RMK A01 T02000111  RH  056%=      5-min Rain = 0
KEA1 251330Z 22014KT 20/11 A3004 RMK A01 T02010111  RH  056%=      5-min Rain = 0
KEA1 251331Z 22012KT 20/11 A3004 RMK A01 T02020112  RH  056%=      5-min Rain = 0
KEA1 251332Z 22014KT 20/11 A3004 RMK A01 T02020111  RH  056%=      5-min Rain = 0
KEA1 251333Z 21014KT 20/11 A3004 RMK A01 T02030111  RH  055%=      5-min Rain = 0
KEA1 251334Z 22014KT 20/11 A3004 RMK A01 T02030111  RH  055%=      5-min Rain = 0
KEA1 251335Z 22013KT 20/11 A3004 RMK A01 T02040111  RH  055%=      5-min Rain = 0
KEA1 251336Z 22015KT 20/11 A3004 RMK A01 T02040110  RH  055%=      5-min Rain = 0
KEA1 251337Z 22017KT 20/11 A3004 RMK A01 T02040110  RH  055%=      5-min Rain = 0
KEA1 251338Z 22014KT 21/11 A3004 RMK A01 T02050111  RH  055%=      5-min Rain = 0
KEA1 251339Z 22013KT 21/11 A3004 RMK A01 T02050111  RH  055%=      5-min Rain = 0
KEA1 251340Z 22014KT 21/11 A3004 RMK A01 T02050110  RH  055%=      5-min Rain = 0
KEA1 251341Z 21015KT 21/11 A3004 RMK A01 T02050111  RH  054%=      5-min Rain = 0
KEA1 251342Z 21013G18KT 21/11 A3004 RMK A01 T02060110  RH  054%=      5-min Rain = 0
KEA1 251343Z 21016KT 21/11 A3004 RMK A01 T02050110  RH  054%=      5-min Rain = 0
KEA1 251344Z 21013KT 21/11 A3005 RMK A01 T02060110  RH  054%=      5-min Rain = 0
KEA1 251345Z 21015KT 21/11 A3004 RMK A01 T02060110  RH  054%=      5-min Rain = 0
KEA1 251346Z 21015KT 21/11 A3004 RMK A01 T02070110  RH  054%=      5-min Rain = 0
KEA1 251347Z 21017KT 21/11 A3004 RMK A01 T02070110  RH  054%=      5-min Rain = 0
KEA1 251348Z 21016KT 21/11 A3004 RMK A01 T02070109  RH  053%=      5-min Rain = 0
KEA1 251349Z 21015KT 21/11 A3004 RMK A01 T02080110  RH  053%=      5-min Rain = 0
KEA1 251350Z 21015KT 21/11 A3004 RMK A01 T02080109  RH  053%=      5-min Rain = 0
KEA1 251351Z 21016KT 21/11 A3004 RMK A01 T02090109  RH  053%=      5-min Rain = 0
KEA1 251352Z 21015KT 21/11 A3004 RMK A01 T02090109  RH  053%=      5-min Rain = 0
KEA1 251353Z 21015KT 21/11 A3004 RMK A01 T02090109  RH  053%=      5-min Rain = 0
KEA1 251354Z 21016KT 21/11 A3004 RMK A01 T02100109  RH  052%=      5-min Rain = 0
KEA1 251355Z 21015G20KT 21/11 A3005 RMK A01 T02110109  RH  052%=      5-min Rain = 0
KEA1 251356Z 22015G21KT 21/11 A3005 RMK A01 T02110109  RH  052%=      5-min Rain = 0
KEA1 251357Z 22018KT 21/11 A3004 RMK A01 T02110108  RH  052%=      5-min Rain = 0
KEA1 251358Z 21014KT 21/11 A3005 RMK A01 T02110108  RH  052%=      5-min Rain = 0
KEA1 251359Z 21015KT 21/11 A3005 RMK A01 T02120109  RH  052%=      5-min Rain = 0
KEA1 251400Z 21014KT 21/11 A3005 RMK A01 T02130108  RH  051%=      5-min Rain = 0
KEA1 251401Z 22014KT 21/11 A3005 RMK A01 T02130108  RH  051%=      5-min Rain = 0
KEA1 251402Z 21014G19KT 21/11 A3005 RMK A01 T02140108  RH  051%=      5-min Rain = 0
KEA1 251403Z 21013KT 22/11 A3005 RMK A01 T02150108  RH  051%=      5-min Rain = 0
KEA1 251404Z 21012KT 22/11 A3005 RMK A01 T02150108  RH  050%=      5-min Rain = 0
KEA1 251405Z 21014KT 22/11 A3005 RMK A01 T02160108  RH  050%=      5-min Rain = 0
KEA1 251406Z 21015KT 22/11 A3005 RMK A01 T02170108  RH  050%=      5-min Rain = 0
KEA1 251407Z 21014G19KT 22/11 A3005 RMK A01 T02170107  RH  050%=      5-min Rain = 0
KEA1 251408Z 21015KT 22/11 A3005 RMK A01 T02170107  RH  050%=      5-min Rain = 0
KEA1 251409Z 21014G19KT 22/11 A3005 RMK A01 T02170108  RH  050%=      5-min Rain = 0
KEA1 251410Z 21016KT 22/11 A3005 RMK A01 T02180106  RH  049%=      5-min Rain = 0
KEA1 251411Z 21014KT 22/11 A3005 RMK A01 T02180107  RH  049%=      5-min Rain = 0
KEA1 251412Z 21014KT 22/11 A3005 RMK A01 T02190107  RH  049%=      5-min Rain = 0
KEA1 251413Z 21014KT 22/11 A3005 RMK A01 T02200107  RH  049%=      5-min Rain = 0
KEA1 251414Z 21015KT 22/11 A3005 RMK A01 T02210106  RH  048%=      5-min Rain = 0
KEA1 251415Z 21016KT 22/11 A3004 RMK A01 T02210106  RH  048%=      5-min Rain = 0
KEA1 251416Z 21015KT 22/11 A3005 RMK A01 T02220105  RH  048%=      5-min Rain = 0
KEA1 251417Z 21013G18KT 22/11 A3005 RMK A01 T02230105  RH  047%=      5-min Rain = 0
KEA1 251418Z 21014G19KT 22/11 A3005 RMK A01 T02230105  RH  047%=      5-min Rain = 0
KEA1 251419Z 21015KT 22/10 A3004 RMK A01 T02240104  RH  047%=      5-min Rain = 0
KEA1 251420Z 21018KT 23/10 A3005 RMK A01 T02250104  RH  046%=      5-min Rain = 0
KEA1 251421Z 21015G21KT 23/10 A3005 RMK A01 T02260104  RH  046%=      5-min Rain = 0
KEA1 251422Z 21014KT 23/10 A3005 RMK A01 T02260104  RH  046%=      5-min Rain = 0
KEA1 251423Z 21015KT 23/10 A3005 RMK A01 T02270104  RH  046%=      5-min Rain = 0
KEA1 251424Z 21016KT 23/10 A3005 RMK A01 T02270104  RH  045%=      5-min Rain = 0
KEA1 251425Z 21017KT 23/10 A3005 RMK A01 T02280104  RH  045%=      5-min Rain = 0
KEA1 251426Z 21016G21KT 23/10 A3005 RMK A01 T02280104  RH  045%=      5-min Rain = 0
KEA1 251427Z 21017G22KT 23/10 A3005 RMK A01 T02290104  RH  045%=      5-min Rain = 0
KEA1 251428Z 21014G19KT 23/10 A3005 RMK A01 T02300104  RH  045%=      5-min Rain = 0
KEA1 251429Z 21015KT 23/10 A3005 RMK A01 T02310104  RH  045%=      5-min Rain = 0
KEA1 251430Z 21018KT 23/10 A3005 RMK A01 T02320104  RH  044%=      5-min Rain = 0
KEA1 251431Z 21017KT 23/10 A3005 RMK A01 T02320104  RH  044%=      5-min Rain = 0
KEA1 251432Z 21017G22KT 23/10 A3005 RMK A01 T02320104  RH  044%=      5-min Rain = 0
KEA1 251433Z 21018KT 23/10 A3005 RMK A01 T02320104  RH  044%=      5-min Rain = 0
KEA1 251434Z 21017KT 23/10 A3005 RMK A01 T02330104  RH  044%=      5-min Rain = 0
KEA1 251435Z 21015KT 23/10 A3005 RMK A01 T02330104  RH  044%=      5-min Rain = 0
KEA1 251436Z 21017G22KT 23/10 A3005 RMK A01 T02340104  RH  044%=      5-min Rain = 0
KEA1 251437Z 21016KT 24/10 A3005 RMK A01 T02350104  RH  044%=      5-min Rain = 0
KEA1 251438Z 21017G22KT 24/10 A3005 RMK A01 T02350104  RH  044%=      5-min Rain = 0
KEA1 251439Z 21017KT 24/10 A3005 RMK A01 T02360104  RH  043%=      5-min Rain = 0
KEA1 251440Z 21017KT 24/11 A3005 RMK A01 T02360105  RH  043%=      5-min Rain = 0
KEA1 251441Z 22015G20KT 24/11 A3005 RMK A01 T02370105  RH  043%=      5-min Rain = 0
KEA1 251442Z 21014KT 24/11 A3005 RMK A01 T02380105  RH  043%=      5-min Rain = 0
KEA1 251443Z 21018KT 24/11 A3005 RMK A01 T02390105  RH  043%=      5-min Rain = 0
KEA1 251444Z 22018KT 24/11 A3005 RMK A01 T02390105  RH  043%=      5-min Rain = 0
KEA1 251445Z 21018KT 24/11 A3005 RMK A01 T02380106  RH  043%=      5-min Rain = 0
KEA1 251446Z 21016KT 24/11 A3005 RMK A01 T02380105  RH  043%=      5-min Rain = 0
KEA1 251447Z 22015KT 24/11 A3005 RMK A01 T02390105  RH  043%=      5-min Rain = 0
KEA1 251448Z 21018KT 24/11 A3005 RMK A01 T02390106  RH  043%=      5-min Rain = 0
KEA1 251449Z 21013G18KT 24/11 A3005 RMK A01 T02400106  RH  043%=      5-min Rain = 0
KEA1 251450Z 22014KT 24/11 A3005 RMK A01 T02420107  RH  042%=      5-min Rain = 0
KEA1 251451Z 22016KT 24/11 A3005 RMK A01 T02430106  RH  042%=      5-min Rain = 0
KEA1 251452Z 22015KT 24/11 A3005 RMK A01 T02430106  RH  042%=      5-min Rain = 0
KEA1 251453Z 22012KT 24/11 A3005 RMK A01 T02430106  RH  042%=      5-min Rain = 0
KEA1 251454Z 21014KT 25/11 A3005 RMK A01 T02450107  RH  042%=      5-min Rain = 0
KEA1 251455Z 21013KT 25/11 A3005 RMK A01 T02460107  RH  042%=      5-min Rain = 0
KEA1 251456Z 21013KT 25/11 A3005 RMK A01 T02480107  RH  041%=      5-min Rain = 0
KEA1 251457Z 22014KT 25/11 A3005 RMK A01 T02490107  RH  041%=      5-min Rain = 0
KEA1 251458Z 22013KT 25/11 A3005 RMK A01 T02480106  RH  041%=      5-min Rain = 0
KEA1 251459Z 22012KT 25/11 A3005 RMK A01 T02490107  RH  041%=      5-min Rain = 0
KEA1 251500Z 22012KT 25/11 A3005 RMK A01 T02500107  RH  040%=      5-min Rain = 0
KEA1 251501Z 22013KT 25/11 A3005 RMK A01 T02510107  RH  040%=      5-min Rain = 0
KEA1 251502Z 21012KT 25/11 A3005 RMK A01 T02520107  RH  040%=      5-min Rain = 0
KEA1 251503Z 21018KT 25/11 A3005 RMK A01 T02530105  RH  039%=      5-min Rain = 0
KEA1 251504Z 21014G19KT 25/10 A3005 RMK A01 T02540104  RH  039%=      5-min Rain = 0
KEA1 251505Z 21017G22KT 25/10 A3005 RMK A01 T02540104  RH  039%=      5-min Rain = 0
KEA1 251506Z 21015KT 25/10 A3005 RMK A01 T02540103  RH  039%=      5-min Rain = 0
KEA1 251507Z 21015KT 25/10 A3005 RMK A01 T02530103  RH  039%=      5-min Rain = 0
KEA1 251508Z 22014KT 26/10 A3005 RMK A01 T02550104  RH  039%=      5-min Rain = 0
KEA1 251509Z 21016KT 26/10 A3005 RMK A01 T02560102  RH  038%=      5-min Rain = 0
KEA1 251510Z 21014G19KT 26/10 A3005 RMK A01 T02570102  RH  038%=      5-min Rain = 0
KEA1 251511Z 21018KT 26/10 A3005 RMK A01 T02580101  RH  037%=      5-min Rain = 0
KEA1 251512Z 22017KT 26/10 A3005 RMK A01 T02570099  RH  037%=      5-min Rain = 0
KEA1 251513Z 22016KT 26/10 A3005 RMK A01 T02560099  RH  037%=      5-min Rain = 0
KEA1 251514Z 21015G20KT 26/10 A3005 RMK A01 T02570098  RH  037%=      5-min Rain = 0
KEA1 251515Z 22014KT 26/10 A3005 RMK A01 T02580099  RH  037%=      5-min Rain = 0
KEA1 251516Z 22016KT 26/10 A3005 RMK A01 T02610099  RH  036%=      5-min Rain = 0
KEA1 251517Z 21016KT 26/10 A3005 RMK A01 T02610099  RH  036%=      5-min Rain = 0
KEA1 251518Z 22013KT 26/10 A3005 RMK A01 T02610099  RH  036%=      5-min Rain = 0
KEA1 251519Z 22014KT 26/10 A3005 RMK A01 T02630100  RH  036%=      5-min Rain = 0
KEA1 251520Z 21013KT 27/10 A3005 RMK A01 T02650100  RH  036%=      5-min Rain = 0
KEA1 251521Z 20015KT 27/10 A3005 RMK A01 T02660100  RH  035%=      5-min Rain = 0
KEA1 251522Z 20017KT 27/10 A3005 RMK A01 T02670099  RH  035%=      5-min Rain = 0
KEA1 251523Z 20017KT 27/10 A3005 RMK A01 T02660098  RH  035%=      5-min Rain = 0
KEA1 251524Z 20017KT 27/10 A3005 RMK A01 T02650097  RH  035%=      5-min Rain = 0
KEA1 251525Z 20016KT 27/10 A3005 RMK A01 T02650097  RH  035%=      5-min Rain = 0
KEA1 251526Z 20015KT 27/10 A3005 RMK A01 T02650098  RH  035%=      5-min Rain = 0
KEA1 251527Z 20014KT 27/10 A3005 RMK A01 T02670098  RH  035%=      5-min Rain = 0
KEA1 251528Z 21012KT 27/10 A3005 RMK A01 T02690099  RH  034%=      5-min Rain = 0
KEA1 251529Z 20015KT 27/10 A3005 RMK A01 T02730099  RH  034%=      5-min Rain = 0
KEA1 251530Z 21015KT 27/10 A3005 RMK A01 T02730098  RH  033%=      5-min Rain = 0
KEA1 251531Z 21012KT 27/10 A3005 RMK A01 T02730098  RH  033%=      5-min Rain = 0
KEA1 251532Z 20013KT 27/10 A3005 RMK A01 T02730098  RH  033%=      5-min Rain = 0
KEA1 251533Z 21015KT 27/10 A3005 RMK A01 T02740097  RH  033%=      5-min Rain = 0
KEA1 251534Z 21018KT 27/10 A3005 RMK A01 T02730097  RH  033%=      5-min Rain = 0
KEA1 251535Z 21014KT 27/10 A3005 RMK A01 T02730097  RH  033%=      5-min Rain = 0
KEA1 251536Z 21013KT 27/10 A3005 RMK A01 T02720097  RH  033%=      5-min Rain = 0
KEA1 251537Z 20014KT 27/10 A3005 RMK A01 T02720098  RH  033%=      5-min Rain = 0
KEA1 251538Z 21015KT 27/10 A3005 RMK A01 T02740098  RH  033%=      5-min Rain = 0
KEA1 251539Z 21017KT 28/10 A3005 RMK A01 T02750098  RH  033%=      5-min Rain = 0
KEA1 251540Z 20016KT 28/10 A3005 RMK A01 T02750097  RH  033%=      5-min Rain = 0
KEA1 251541Z 20015KT 28/10 A3005 RMK A01 T02750097  RH  033%=      5-min Rain = 0
KEA1 251542Z 21012KT 28/10 A3005 RMK A01 T02760098  RH  033%=      5-min Rain = 0
KEA1 251543Z 20016KT 28/10 A3005 RMK A01 T02790098  RH  032%=      5-min Rain = 0
KEA1 251544Z 21012KT 28/10 A3005 RMK A01 T02800097  RH  032%=      5-min Rain = 0
KEA1 251545Z 21016KT 28/10 A3005 RMK A01 T02820098  RH  032%=      5-min Rain = 0
KEA1 251546Z 21016KT 28/10 A3005 RMK A01 T02820096  RH  031%=      5-min Rain = 0
KEA1 251547Z 20017KT 28/10 A3005 RMK A01 T02800095  RH  031%=      5-min Rain = 0
KEA1 251548Z 21014KT 28/10 A3005 RMK A01 T02800096  RH  032%=      5-min Rain = 0
KEA1 251549Z 21013KT 28/10 A3005 RMK A01 T02820097  RH  031%=      5-min Rain = 0
KEA1 251550Z 20017KT 29/10 A3005 RMK A01 T02850098  RH  031%=      5-min Rain = 0
KEA1 251551Z 21018KT 29/10 A3004 RMK A01 T02860095  RH  030%=      5-min Rain = 0
KEA1 251552Z 20014KT 28/10 A3005 RMK A01 T02840096  RH  031%=      5-min Rain = 0
KEA1 251553Z 20016KT 29/10 A3005 RMK A01 T02860097  RH  031%=      5-min Rain = 0
KEA1 251554Z 20018KT 29/10 A3004 RMK A01 T02860096  RH  031%=      5-min Rain = 0
KEA1 251555Z 21016KT 29/10 A3005 RMK A01 T02860096  RH  031%=      5-min Rain = 0
KEA1 251556Z 21017KT 29/09 A3004 RMK A01 T02860094  RH  030%=      5-min Rain = 0
KEA1 251557Z 21015KT 29/10 A3005 RMK A01 T02870096  RH  030%=      5-min Rain = 0
KEA1 251558Z 20015KT 29/10 A3005 RMK A01 T02870096  RH  030%=      5-min Rain = 0
KEA1 251559Z 20018KT 29/10 A3004 RMK A01 T02880095  RH  030%=      5-min Rain = 0
KEA1 251600Z 21015KT 29/10 A3004 RMK A01 T02890095  RH  030%=      5-min Rain = 0
KEA1 251601Z 20017KT 29/10 A3004 RMK A01 T02890095  RH  030%=      5-min Rain = 0
KEA1 251602Z 20016KT 29/09 A3004 RMK A01 T02880093  RH  030%=      5-min Rain = 0
KEA1 251603Z 20016KT 29/10 A3004 RMK A01 T02870095  RH  030%=      5-min Rain = 0
KEA1 251604Z 19013KT 29/10 A3005 RMK A01 T02880096  RH  030%=      5-min Rain = 0
KEA1 251605Z 20015KT 29/10 A3005 RMK A01 T02930097  RH  029%=      5-min Rain = 0
KEA1 251606Z 20015KT 29/10 A3005 RMK A01 T02940096  RH  029%=      5-min Rain = 0
KEA1 251607Z 20016KT 29/09 A3005 RMK A01 T02940094  RH  029%=      5-min Rain = 0
KEA1 251608Z 19016KT 29/09 A3005 RMK A01 T02940094  RH  029%=      5-min Rain = 0
KEA1 251609Z 20016KT 29/09 A3005 RMK A01 T02940093  RH  029%=      5-min Rain = 0
KEA1 251610Z 21017KT 30/09 A3004 RMK A01 T02950092  RH  028%=      5-min Rain = 0
KEA1 251611Z 21016KT 29/09 A3005 RMK A01 T02930091  RH  028%=      5-min Rain = 0
KEA1 251612Z 22015KT 29/09 A3005 RMK A01 T02930092  RH  029%=      5-min Rain = 0
KEA1 251613Z 21012KT 29/09 A3005 RMK A01 T02940090  RH  028%=      5-min Rain = 0
KEA1 251614Z 20014KT 30/09 A3005 RMK A01 T02960093  RH  028%=      5-min Rain = 0
KEA1 251615Z 20014KT 30/09 A3005 RMK A01 T02980094  RH  028%=      5-min Rain = 0
KEA1 251616Z 21014KT 30/09 A3005 RMK A01 T02990091  RH  027%=      5-min Rain = 0
KEA1 251617Z 21013KT 30/09 A3005 RMK A01 T03010093  RH  027%=      5-min Rain = 0
KEA1 251618Z 21017KT 30/09 A3005 RMK A01 T03040091  RH  026%=      5-min Rain = 0
KEA1 251619Z 21013KT 30/09 A3005 RMK A01 T03030090  RH  027%=      5-min Rain = 0
KEA1 251620Z 21014KT 30/09 A3005 RMK A01 T03020091  RH  027%=      5-min Rain = 0
KEA1 251621Z 20015KT 30/09 A3005 RMK A01 T03030090  RH  027%=      5-min Rain = 0
KEA1 251622Z 19016KT 30/09 A3005 RMK A01 T03030093  RH  027%=      5-min Rain = 0
KEA1 251623Z 19016KT 30/09 A3005 RMK A01 T03020091  RH  027%=      5-min Rain = 0
KEA1 251624Z 19016KT 30/09 A3005 RMK A01 T03030088  RH  026%=      5-min Rain = 0
KEA1 251625Z 20015KT 30/09 A3005 RMK A01 T03030086  RH  026%=      5-min Rain = 0
KEA1 251626Z 20014KT 30/09 A3005 RMK A01 T03020089  RH  026%=      5-min Rain = 0
KEA1 251627Z 22015KT 30/09 A3005 RMK A01 T03030089  RH  026%=      5-min Rain = 0
KEA1 251628Z 21014KT 31/09 A3004 RMK A01 T03050086  RH  026%=      5-min Rain = 0
KEA1 251629Z 21015KT 31/08 A3005 RMK A01 T03060081  RH  025%=      5-min Rain = 0
KEA1 251630Z 20014KT 31/08 A3004 RMK A01 T03060083  RH  025%=      5-min Rain = 0
KEA1 251631Z 22014KT 31/08 A3005 RMK A01 T03050082  RH  025%=      5-min Rain = 0
KEA1 251632Z 21015KT 31/08 A3004 RMK A01 T03060081  RH  025%=      5-min Rain = 0
KEA1 251633Z 21016KT 31/08 A3004 RMK A01 T03060081  RH  025%=      5-min Rain = 0
KEA1 251634Z 22016KT 31/08 A3004 RMK A01 T03070080  RH  024%=      5-min Rain = 0
KEA1 251635Z 21014KT 31/08 A3004 RMK A01 T03080080  RH  024%=      5-min Rain = 0
KEA1 251636Z 20013KT 31/08 A3004 RMK A01 T03090084  RH  025%=      5-min Rain = 0
KEA1 251637Z 20010KT 31/09 A3004 RMK A01 T03140087  RH  024%=      5-min Rain = 0
KEA1 251638Z 21013KT 32/08 A3004 RMK A01 T03190084  RH  023%=      5-min Rain = 0
KEA1 251639Z 20015KT 32/08 A3004 RMK A01 T03190081  RH  023%=      5-min Rain = 0
KEA1 251640Z 19016KT 32/08 A3004 RMK A01 T03160083  RH  024%=      5-min Rain = 0
KEA1 251641Z 19016KT 31/08 A3004 RMK A01 T03140081  RH  024%=      5-min Rain = 0
KEA1 251642Z 20016KT 31/08 A3004 RMK A01 T03130076  RH  023%=      5-min Rain = 0
KEA1 251643Z 21015KT 31/08 A3004 RMK A01 T03130075  RH  023%=      5-min Rain = 0
KEA1 251644Z 20014KT 31/07 A3004 RMK A01 T03140074  RH  022%=      5-min Rain = 0
KEA1 251645Z 21016G21KT 32/07 A3004 RMK A01 T03160072  RH  022%=      5-min Rain = 0
KEA1 251646Z 20017KT 32/07 A3004 RMK A01 T03170069  RH  021%=      5-min Rain = 0
KEA1 251647Z 20017KT 32/07 A3004 RMK A01 T03160070  RH  022%=      5-min Rain = 0
KEA1 251648Z 20016KT 32/07 A3004 RMK A01 T03150071  RH  022%=      5-min Rain = 0
KEA1 251649Z 22014KT 32/07 A3004 RMK A01 T03160072  RH  022%=      5-min Rain = 0
KEA1 251650Z 23015KT 32/07 A3004 RMK A01 T03170070  RH  021%=      5-min Rain = 0
KEA1 251651Z 21014KT 32/07 A3004 RMK A01 T03180072  RH  022%=      5-min Rain = 0
KEA1 251652Z 22014KT 32/07 A3004 RMK A01 T03180071  RH  021%=      5-min Rain = 0
KEA1 251653Z 22015G20KT 32/07 A3004 RMK A01 T03190066  RH  021%=      5-min Rain = 0
KEA1 251654Z 21014KT 32/06 A3004 RMK A01 T03190061  RH  020%=      5-min Rain = 0
KEA1 251655Z 21015KT 32/06 A3004 RMK A01 T03230064  RH  020%=      5-min Rain = 0
KEA1 251656Z 20013G18KT 32/07 A3004 RMK A01 T03230065  RH  020%=      5-min Rain = 0
KEA1 251657Z 18015KT 32/07 A3004 RMK A01 T03240070  RH  021%=      5-min Rain = 0
KEA1 251658Z 20016KT 32/07 A3003 RMK A01 T03220070  RH  021%=      5-min Rain = 0
KEA1 251659Z 22015KT 32/07 A3004 RMK A01 T03200069  RH  021%=      5-min Rain = 0
KEA1 251700Z 21016KT 32/06 A3003 RMK A01 T03200063  RH  020%=      5-min Rain = 0
KEA1 251701Z 20014KT 32/06 A3003 RMK A01 T03210061  RH  020%=      5-min Rain = 0
KEA1 251702Z 19015KT 32/06 A3003 RMK A01 T03230064  RH  020%=      5-min Rain = 0
KEA1 251703Z 20016KT 33/07 A3003 RMK A01 T03250065  RH  020%=      5-min Rain = 0
KEA1 251704Z 21017KT 33/06 A3003 RMK A01 T03270063  RH  019%=      5-min Rain = 0
KEA1 251705Z 22017KT 33/06 A3003 RMK A01 T03250064  RH  020%=      5-min Rain = 0
KEA1 251706Z 21016G21KT 32/06 A3003 RMK A01 T03240063  RH  020%=      5-min Rain = 0
KEA1 251707Z 20013KT 32/06 A3004 RMK A01 T03240064  RH  020%=      5-min Rain = 0
KEA1 251708Z 19015KT 33/06 A3003 RMK A01 T03270062  RH  019%=      5-min Rain = 0
KEA1 251709Z 19014KT 33/06 A3003 RMK A01 T03260060  RH  019%=      5-min Rain = 0
KEA1 251710Z 19018KT 33/06 A3003 RMK A01 T03270060  RH  019%=      5-min Rain = 0
KEA1 251711Z 18021KT 33/06 A3003 RMK A01 T03270057  RH  019%=      5-min Rain = 0
KEA1 251712Z 18019KT 33/06 A3003 RMK A01 T03260055  RH  018%=      5-min Rain = 0
KEA1 251713Z 19016KT 32/05 A3003 RMK A01 T03240050  RH  018%=      5-min Rain = 0
KEA1 251714Z 20018KT 32/05 A3003 RMK A01 T03230051  RH  018%=      5-min Rain = 0
KEA1 251715Z 20016KT 32/05 A3003 RMK A01 T03230054  RH  019%=      5-min Rain = 0
KEA1 251716Z 20017KT 33/06 A3003 RMK A01 T03250057  RH  019%=      5-min Rain = 0
KEA1 251717Z 20016G21KT 32/06 A3003 RMK A01 T03230058  RH  019%=      5-min Rain = 0
KEA1 251718Z 19020KT 32/06 A3003 RMK A01 T03220055  RH  019%=      5-min Rain = 0
KEA1 251719Z 19017KT 32/06 A3003 RMK A01 T03230058  RH  019%=      5-min Rain = 0
KEA1 251720Z 18016KT 33/06 A3003 RMK A01 T03260058  RH  019%=      5-min Rain = 0
KEA1 251721Z 20017KT 33/06 A3003 RMK A01 T03270060  RH  019%=      5-min Rain = 0
KEA1 251722Z 19018KT 33/06 A3003 RMK A01 T03280060  RH  019%=      5-min Rain = 0
KEA1 251723Z 20014KT 33/06 A3003 RMK A01 T03270061  RH  019%=      5-min Rain = 0
KEA1 251724Z 20014KT 33/06 A3003 RMK A01 T03250060  RH  019%=      5-min Rain = 0
KEA1 251725Z 19018KT 33/06 A3003 RMK A01 T03280060  RH  019%=      5-min Rain = 0
KEA1 251726Z 19019KT 33/06 A3003 RMK A01 T03300058  RH  018%=      5-min Rain = 0
KEA1 251727Z 19016KT 33/06 A3003 RMK A01 T03290058  RH  018%=      5-min Rain = 0
KEA1 251728Z 19016KT 33/06 A3003 RMK A01 T03310058  RH  018%=      5-min Rain = 0
KEA1 251729Z 19015KT 33/06 A3003 RMK A01 T03310057  RH  018%=      5-min Rain = 0
KEA1 251730Z 20015KT 33/06 A3003 RMK A01 T03280056  RH  018%=      5-min Rain = 0
KEA1 251731Z 20018KT 33/06 A3003 RMK A01 T03290058  RH  018%=      5-min Rain = 0
KEA1 251732Z 19015KT 33/06 A3003 RMK A01 T03290059  RH  019%=      5-min Rain = 0
KEA1 251733Z 20019KT 33/06 A3003 RMK A01 T03270056  RH  018%=      5-min Rain = 0
KEA1 251734Z 19017KT 33/05 A3003 RMK A01 T03280053  RH  018%=      5-min Rain = 0
KEA1 251735Z 19015KT 33/05 A3003 RMK A01 T03280053  RH  018%=      5-min Rain = 0
KEA1 251736Z 18017KT 33/05 A3003 RMK A01 T03280054  RH  018%=      5-min Rain = 0
KEA1 251737Z 19018KT 33/05 A3003 RMK A01 T03290053  RH  018%=      5-min Rain = 0
KEA1 251738Z 20018KT 33/05 A3003 RMK A01 T03300048  RH  017%=      5-min Rain = 0
KEA1 251739Z 21017KT 33/05 A3003 RMK A01 T03320051  RH  017%=      5-min Rain = 0
KEA1 251740Z 20014KT 33/05 A3003 RMK A01 T03310051  RH  017%=      5-min Rain = 0
KEA1 251741Z 19016KT 33/06 A3003 RMK A01 T03330055  RH  018%=      5-min Rain = 0
KEA1 251742Z 19020KT 34/06 A3002 RMK A01 T03350055  RH  018%=      5-min Rain = 0
KEA1 251743Z 19016KT 33/06 A3003 RMK A01 T03330055  RH  018%=      5-min Rain = 0
KEA1 251744Z 19016KT 33/06 A3003 RMK A01 T03330055  RH  018%=      5-min Rain = 0
KEA1 251745Z 20013KT 33/05 A3003 RMK A01 T03320053  RH  017%=      5-min Rain = 0
KEA1 251746Z 20018KT 33/06 A3002 RMK A01 T03310055  RH  018%=      5-min Rain = 0
KEA1 251747Z 19015G20KT 33/06 A3002 RMK A01 T03320057  RH  018%=      5-min Rain = 0
KEA1 251748Z 20015KT 34/06 A3002 RMK A01 T03350057  RH  018%=      5-min Rain = 0
KEA1 251749Z 20018KT 34/05 A3002 RMK A01 T03370052  RH  017%=      5-min Rain = 0
KEA1 251750Z 20019KT 34/05 A3002 RMK A01 T03360049  RH  017%=      5-min Rain = 0
KEA1 251751Z 20018KT 34/04 A3002 RMK A01 T03350044  RH  016%=      5-min Rain = 0
KEA1 251752Z 20019KT 34/04 A3002 RMK A01 T03350040  RH  016%=      5-min Rain = 0
KEA1 251753Z 20018KT 34/04 A3002 RMK A01 T03360043  RH  016%=      5-min Rain = 0
KEA1 251754Z 21015KT 34/05 A3002 RMK A01 T03360046  RH  016%=      5-min Rain = 0
KEA1 251755Z 20013KT 34/05 A3002 RMK A01 T03350049  RH  017%=      5-min Rain = 0
KEA1 251756Z 20016G21KT 33/05 A3002 RMK A01 T03340051  RH  017%=      5-min Rain = 0
KEA1 251757Z 20019KT 34/05 A3002 RMK A01 T03350052  RH  017%=      5-min Rain = 0
KEA1 251758Z 20015KT 33/05 A3002 RMK A01 T03340049  RH  017%=      5-min Rain = 0
KEA1 251759Z 21016G21KT 33/05 A3002 RMK A01 T03320050  RH  017%=      5-min Rain = 0
KEA1 251800Z 19014G22KT 33/05 A3002 RMK A01 T03330051  RH  017%=      5-min Rain = 0
KEA1 251801Z 18015KT 34/06 A3002 RMK A01 T03400055  RH  017%=      5-min Rain = 0
KEA1 251802Z 18016KT 34/05 A3002 RMK A01 T03420053  RH  017%=      5-min Rain = 0
KEA1 251803Z 19017G22KT 34/05 A3002 RMK A01 T03390052  RH  017%=      5-min Rain = 0
KEA1 251804Z 19019KT 34/05 A3002 RMK A01 T03400053  RH  017%=      5-min Rain = 0
KEA1 251805Z 18017KT 34/05 A3002 RMK A01 T03410050  RH  016%=      5-min Rain = 0
KEA1 251806Z 19016KT 34/05 A3002 RMK A01 T03370049  RH  016%=      5-min Rain = 0
KEA1 251807Z 19017G22KT 34/05 A3002 RMK A01 T03370050  RH  017%=      5-min Rain = 0
KEA1 251808Z 19016KT 34/05 A3002 RMK A01 T03410051  RH  016%=      5-min Rain = 0
KEA1 251809Z 19015KT 34/05 A3002 RMK A01 T03400048  RH  016%=      5-min Rain = 0
KEA1 251810Z 19015G20KT 34/05 A3002 RMK A01 T03390051  RH  017%=      5-min Rain = 0
KEA1 251811Z 20020KT 34/05 A3002 RMK A01 T03420049  RH  016%=      5-min Rain = 0
KEA1 251812Z 22013KT 34/05 A3002 RMK A01 T03410047  RH  016%=      5-min Rain = 0
KEA1 251813Z 22013KT 34/05 A3002 RMK A01 T03390047  RH  016%=      5-min Rain = 0
KEA1 251814Z 22014KT 34/05 A3002 RMK A01 T03400050  RH  016%=      5-min Rain = 0
KEA1 251815Z 20018KT 34/05 A3001 RMK A01 T03410051  RH  016%=      5-min Rain = 0
KEA1 251816Z 21016KT 34/05 A3001 RMK A01 T03420046  RH  016%=      5-min Rain = 0
KEA1 251817Z 21016KT 34/05 A3002 RMK A01 T03410046  RH  016%=      5-min Rain = 0
KEA1 251818Z 20014KT 34/04 A3002 RMK A01 T03420044  RH  016%=      5-min Rain = 0
KEA1 251819Z 20012KT 34/04 A3002 RMK A01 T03420043  RH  015%=      5-min Rain = 0
KEA1 251820Z 20011KT 34/04 A3002 RMK A01 T03420041  RH  015%=      5-min Rain = 0
KEA1 251821Z 22011KT 34/04 A3002 RMK A01 T03400043  RH  016%=      5-min Rain = 0
KEA1 251822Z 22011KT 34/05 A3001 RMK A01 T03410045  RH  016%=      5-min Rain = 0
KEA1 251823Z 21012KT 34/05 A3001 RMK A01 T03410048  RH  016%=      5-min Rain = 0
KEA1 251824Z 17014KT 34/05 A3001 RMK A01 T03430048  RH  016%=      5-min Rain = 0
KEA1 251825Z 18013KT 34/05 A3001 RMK A01 T03420048  RH  016%=      5-min Rain = 0
KEA1 251826Z 18017KT 34/05 A3001 RMK A01 T03430050  RH  016%=      5-min Rain = 0
KEA1 251827Z 18013KT 35/05 A3001 RMK A01 T03450049  RH  016%=      5-min Rain = 0
KEA1 251828Z 19013KT 34/05 A3001 RMK A01 T03440048  RH  016%=      5-min Rain = 0
KEA1 251829Z 19016KT 34/05 A3001 RMK A01 T03430048  RH  016%=      5-min Rain = 0
KEA1 251830Z 20015KT 34/04 A3001 RMK A01 T03420044  RH  016%=      5-min Rain = 0
KEA1 251831Z 21013G18KT 34/04 A3001 RMK A01 T03410043  RH  016%=      5-min Rain = 0
KEA1 251832Z 22015G22KT 35/05 A3001 RMK A01 T03450045  RH  015%=      5-min Rain = 0
KEA1 251833Z 21015KT 34/04 A3001 RMK A01 T03440042  RH  015%=      5-min Rain = 0
KEA1 251834Z 23010KT 34/04 A3001 RMK A01 T03410043  RH  015%=      5-min Rain = 0
KEA1 251835Z 21009KT 34/05 A3001 RMK A01 T03440046  RH  016%=      5-min Rain = 0
KEA1 251836Z 19010G15KT 35/05 A3001 RMK A01 T03490046  RH  015%=      5-min Rain = 0
KEA1 251837Z 18013KT 35/05 A3001 RMK A01 T03510045  RH  015%=      5-min Rain = 0
KEA1 251838Z 19012KT 35/05 A3001 RMK A01 T03500045  RH  015%=      5-min Rain = 0
KEA1 251839Z 19016KT 35/05 A30 RMK A01 T03500045  RH  015%=      5-min Rain = 0
KEA1 251840Z 19012KT 35/04 A3001 RMK A01 T03470044  RH  015%=      5-min Rain = 0
KEA1 251841Z 18014KT 35/04 A30 RMK A01 T03490043  RH  015%=      5-min Rain = 0
KEA1 251842Z 20015KT 35/04 A30 RMK A01 T03500042  RH  015%=      5-min Rain = 0
KEA1 251843Z 22013KT 35/05 A3001 RMK A01 T03490046  RH  015%=      5-min Rain = 0
KEA1 251844Z 21011G16KT 35/04 A3001 RMK A01 T03450044  RH  015%=      5-min Rain = 0
KEA1 251845Z 19012KT 34/05 A30 RMK A01 T03440045  RH  015%=      5-min Rain = 0
KEA1 251846Z 19013KT 35/05 A30 RMK A01 T03460045  RH  015%=      5-min Rain = 0
KEA1 251847Z 19012KT 35/05 A30 RMK A01 T03480046  RH  015%=      5-min Rain = 0
KEA1 251848Z 18015G21KT 35/05 A30 RMK A01 T03530049  RH  015%=      5-min Rain = 0
KEA1 251849Z 18020KT 36/05 A30 RMK A01 T03550045  RH  015%=      5-min Rain = 0
KEA1 251850Z 18017KT 35/04 A30 RMK A01 T03480043  RH  015%=      5-min Rain = 0
KEA1 251851Z 19015KT 35/05 A30 RMK A01 T03450045  RH  015%=      5-min Rain = 0
KEA1 251852Z 19012KT 35/05 A30 RMK A01 T03470046  RH  015%=      5-min Rain = 0
KEA1 251853Z 20014KT 35/05 A2999 RMK A01 T03460046  RH  015%=      5-min Rain = 0
KEA1 251854Z 17014KT 35/05 A2999 RMK A01 T03470047  RH  015%=      5-min Rain = 0
KEA1 251855Z 19015KT 35/05 A2999 RMK A01 T03520049  RH  015%=      5-min Rain = 0
KEA1 251856Z 21015KT 36/05 A2999 RMK A01 T03560048  RH  015%=      5-min Rain = 0
KEA1 251857Z 21016KT 35/05 A2999 RMK A01 T03520046  RH  015%=      5-min Rain = 0
KEA1 251858Z 21017KT 35/05 A2999 RMK A01 T03510047  RH  015%=      5-min Rain = 0
KEA1 251859Z 20018KT 35/05 A2999 RMK A01 T03500045  RH  015%=      5-min Rain = 0
KEA1 251900Z 19014G22KT 35/04 A30 RMK A01 T03480043  RH  015%=      5-min Rain = 0
KEA1 251901Z 20011KT 35/04 A30 RMK A01 T03450043  RH  015%=      5-min Rain = 0
KEA1 251902Z 19015KT 35/04 A30 RMK A01 T03480044  RH  015%=      5-min Rain = 0
KEA1 251903Z 18014KT 35/04 A30 RMK A01 T03470043  RH  015%=      5-min Rain = 0
KEA1 251904Z 17010KT 35/04 A30 RMK A01 T03480043  RH  015%=      5-min Rain = 0
KEA1 251905Z 18011KT 35/04 A2999 RMK A01 T03480042  RH  015%=      5-min Rain = 0
KEA1 251906Z 19012G17KT 35/04 A2999 RMK A01 T03470044  RH  015%=      5-min Rain = 0
KEA1 251907Z 18016KT 35/05 A2999 RMK A01 T03500046  RH  015%=      5-min Rain = 0
KEA1 251908Z 18014KT 35/05 A2999 RMK A01 T03520046  RH  015%=      5-min Rain = 0
KEA1 251909Z 19015G20KT 35/05 A2999 RMK A01 T03510046  RH  015%=      5-min Rain = 0
KEA1 251910Z 21015KT 35/05 A2999 RMK A01 T03510045  RH  015%=      5-min Rain = 0
KEA1 251911Z 19014KT 35/04 A2999 RMK A01 T03470044  RH  015%=      5-min Rain = 0
KEA1 251912Z 18015KT 35/04 A2999 RMK A01 T03460044  RH  015%=      5-min Rain = 0
KEA1 251913Z 18015G20KT 35/05 A2999 RMK A01 T03470046  RH  015%=      5-min Rain = 0
KEA1 251914Z 19018G23KT 35/05 A2998 RMK A01 T03500046  RH  015%=      5-min Rain = 0
KEA1 251915Z 19019KT 35/04 A2998 RMK A01 T03510044  RH  015%=      5-min Rain = 0
KEA1 251916Z 18018KT 35/04 A2998 RMK A01 T03480043  RH  015%=      5-min Rain = 0
KEA1 251917Z 18016KT 35/04 A2998 RMK A01 T03470043  RH  015%=      5-min Rain = 0
KEA1 251918Z 19017KT 35/04 A2998 RMK A01 T03470044  RH  015%=      5-min Rain = 0
KEA1 251919Z 18015KT 35/05 A2998 RMK A01 T03490045  RH  015%=      5-min Rain = 0
KEA1 251920Z 18014KT 35/05 A2998 RMK A01 T03510045  RH  015%=      5-min Rain = 0
KEA1 251921Z 19014KT 35/05 A2998 RMK A01 T03490045  RH  015%=      5-min Rain = 0
KEA1 251922Z 19011KT 35/05 A2998 RMK A01 T03510047  RH  015%=      5-min Rain = 0
KEA1 251923Z 22014KT 36/05 A2998 RMK A01 T03560046  RH  015%=      5-min Rain = 0
KEA1 251924Z 22013KT 36/04 A2998 RMK A01 T03560044  RH  014%=      5-min Rain = 0
KEA1 251925Z 22012G17KT 35/04 A2998 RMK A01 T03520043  RH  015%=      5-min Rain = 0
KEA1 251926Z 21008KT 35/04 A2998 RMK A01 T03500043  RH  015%=      5-min Rain = 0
KEA1 251927Z 22010KT 35/04 A2998 RMK A01 T03470044  RH  015%=      5-min Rain = 0
KEA1 251928Z 21009KT 35/05 A2998 RMK A01 T03480049  RH  016%=      5-min Rain = 0
KEA1 251929Z 20011KT 36/05 A2998 RMK A01 T03560053  RH  015%=      5-min Rain = 0
KEA1 251930Z 18015KT 36/05 A2998 RMK A01 T03580048  RH  015%=      5-min Rain = 0
KEA1 251931Z 18019KT 35/05 A2998 RMK A01 T03540045  RH  015%=      5-min Rain = 0
KEA1 251932Z 18016KT 35/04 A2998 RMK A01 T03510044  RH  015%=      5-min Rain = 0
KEA1 251933Z 20013KT 35/05 A2998 RMK A01 T03500045  RH  015%=      5-min Rain = 0
KEA1 251934Z 19011KT 35/05 A2998 RMK A01 T03520047  RH  015%=      5-min Rain = 0
KEA1 251935Z 20014KT 36/05 A2997 RMK A01 T03560048  RH  015%=      5-min Rain = 0
KEA1 251936Z 20017KT 36/05 A2997 RMK A01 T03580046  RH  014%=      5-min Rain = 0
KEA1 251937Z 21014KT 36/05 A2997 RMK A01 T03570046  RH  014%=      5-min Rain = 0
KEA1 251938Z 22014KT 36/04 A2997 RMK A01 T03550044  RH  015%=      5-min Rain = 0
KEA1 251939Z 23009KT 35/04 A2997 RMK A01 T03510043  RH  015%=      5-min Rain = 0
KEA1 251940Z 22010KT 35/04 A2997 RMK A01 T03470043  RH  015%=      5-min Rain = 0
KEA1 251941Z 22013KT 35/05 A2997 RMK A01 T03510048  RH  015%=      5-min Rain = 0
KEA1 251942Z 22012KT 36/05 A2997 RMK A01 T03560046  RH  015%=      5-min Rain = 0
KEA1 251943Z 20016KT 35/04 A2997 RMK A01 T03540044  RH  015%=      5-min Rain = 0
KEA1 251944Z 18019KT 35/05 A2997 RMK A01 T03540045  RH  015%=      5-min Rain = 0
KEA1 251945Z 19019KT 36/04 A2997 RMK A01 T03550044  RH  014%=      5-min Rain = 0
KEA1 251946Z 20011KT 35/04 A2997 RMK A01 T03520043  RH  015%=      5-min Rain = 0
KEA1 251947Z 17010KT 35/04 A2997 RMK A01 T03500043  RH  015%=      5-min Rain = 0
KEA1 251948Z 16011KT 35/04 A2997 RMK A01 T03510044  RH  015%=      5-min Rain = 0
KEA1 251949Z 18014G19KT 35/05 A2997 RMK A01 T03540045  RH  015%=      5-min Rain = 0
KEA1 251950Z 17012KT 35/04 A2997 RMK A01 T03540044  RH  015%=      5-min Rain = 0
KEA1 251951Z 21009KT 36/05 A2997 RMK A01 T03550046  RH  015%=      5-min Rain = 0
KEA1 251952Z 20010KT 36/05 A2997 RMK A01 T03590045  RH  014%=      5-min Rain = 0
KEA1 251953Z 21011KT 36/05 A2997 RMK A01 T03580046  RH  014%=      5-min Rain = 0
KEA1 251954Z 19019G26KT 36/05 A2997 RMK A01 T03580047  RH  015%=      5-min Rain = 0
KEA1 251955Z 17015KT 36/04 A2997 RMK A01 T03580044  RH  014%=      5-min Rain = 0
KEA1 251956Z 16013KT 36/04 A2997 RMK A01 T03570044  RH  014%=      5-min Rain = 0
KEA1 251957Z 18011KT 36/05 A2997 RMK A01 T03560045  RH  014%=      5-min Rain = 0
KEA1 251958Z 19011KT 36/05 A2997 RMK A01 T03570045  RH  014%=      5-min Rain = 0
KEA1 251959Z 19010KT 36/04 A2997 RMK A01 T03550044  RH  015%=      5-min Rain = 0
KEA1 252000Z 18012KT 36/05 A2997 RMK A01 T03570047  RH  015%=      5-min Rain = 0
KEA1 252001Z 20015KT 36/05 A2997 RMK A01 T03600046  RH  014%=      5-min Rain = 0
KEA1 252002Z 21015KT 36/05 A2997 RMK A01 T03590045  RH  014%=      5-min Rain = 0
KEA1 252003Z 22011KT 36/05 A2997 RMK A01 T03590045  RH  014%=      5-min Rain = 0
KEA1 252004Z 23010KT 36/05 A2997 RMK A01 T03600046  RH  014%=      5-min Rain = 0
KEA1 252005Z 19010G16KT 36/05 A2997 RMK A01 T03640047  RH  014%=      5-min Rain = 0
KEA1 252006Z 19017KT 36/04 A2996 RMK A01 T03630044  RH  014%=      5-min Rain = 0
KEA1 252007Z 18014KT 36/04 A2996 RMK A01 T03580042  RH  014%=      5-min Rain = 0
KEA1 252008Z 18011KT 36/04 A2996 RMK A01 T03570042  RH  014%=      5-min Rain = 0
KEA1 252009Z 16012KT 36/04 A2997 RMK A01 T03560043  RH  014%=      5-min Rain = 0
KEA1 252010Z 17011KT 36/04 A2996 RMK A01 T03580044  RH  014%=      5-min Rain = 0
KEA1 252011Z 17016KT 36/04 A2996 RMK A01 T03590044  RH  014%=      5-min Rain = 0
KEA1 252012Z 18013KT 36/04 A2996 RMK A01 T03570043  RH  014%=      5-min Rain = 0
KEA1 252013Z 18011KT 36/04 A2996 RMK A01 T03560043  RH  014%=      5-min Rain = 0
KEA1 252014Z 18008G13KT 36/04 A2996 RMK A01 T03560043  RH  014%=      5-min Rain = 0
KEA1 252015Z 18010G15KT 35/04 A2996 RMK A01 T03530042  RH  014%=      5-min Rain = 0
KEA1 252016Z 19010KT 36/04 A2996 RMK A01 T03550043  RH  014%=      5-min Rain = 0
KEA1 252017Z 22012G19KT 36/04 A2996 RMK A01 T03570043  RH  014%=      5-min Rain = 0
KEA1 252018Z 22013KT 36/04 A2996 RMK A01 T03570043  RH  014%=      5-min Rain = 0
KEA1 252019Z 21016KT 36/04 A2996 RMK A01 T03550042  RH  014%=      5-min Rain = 0
KEA1 252020Z 20016KT 35/04 A2996 RMK A01 T03540041  RH  014%=      5-min Rain = 0
KEA1 252021Z 21011G17KT 36/05 A2996 RMK A01 T03560046  RH  015%=      5-min Rain = 0
KEA1 252022Z 22007KT 36/05 A2996 RMK A01 T03560050  RH  015%=      5-min Rain = 0
KEA1 252023Z 20013KT 36/05 A2996 RMK A01 T03580047  RH  015%=      5-min Rain = 0
KEA1 252024Z 19016KT 36/04 A2996 RMK A01 T03620043  RH  014%=      5-min Rain = 0
KEA1 252025Z 20016KT 36/04 A2996 RMK A01 T03590042  RH  014%=      5-min Rain = 0
KEA1 252026Z 19016KT 36/04 A2996 RMK A01 T03560040  RH  014%=      5-min Rain = 0
KEA1 252027Z 19018KT 36/04 A2996 RMK A01 T03550040  RH  014%=      5-min Rain = 0
KEA1 252028Z 20010KT 36/04 A2996 RMK A01 T03570041  RH  014%=      5-min Rain = 0
KEA1 252029Z 20009KT 36/04 A2996 RMK A01 T03610043  RH  014%=      5-min Rain = 0
KEA1 252030Z 20012KT 36/04 A2996 RMK A01 T03610042  RH  014%=      5-min Rain = 0
KEA1 252031Z 21013KT 36/04 A2996 RMK A01 T03590042  RH  014%=      5-min Rain = 0
KEA1 252032Z 21015KT 36/04 A2996 RMK A01 T03570042  RH  014%=      5-min Rain = 0
KEA1 252033Z 21013KT 36/04 A2996 RMK A01 T03560041  RH  014%=      5-min Rain = 0
KEA1 252034Z 21013KT 36/04 A2996 RMK A01 T03560041  RH  014%=      5-min Rain = 0
KEA1 252035Z 18009KT 35/04 A2996 RMK A01 T03540041  RH  014%=      5-min Rain = 0
KEA1 252036Z 20010KT 36/04 A2996 RMK A01 T03550041  RH  014%=      5-min Rain = 0
KEA1 252037Z 20013KT 36/04 A2995 RMK A01 T03570041  RH  014%=      5-min Rain = 0
KEA1 252038Z 19012G17KT 36/04 A2995 RMK A01 T03560040  RH  014%=      5-min Rain = 0
KEA1 252039Z 20015G20KT 36/04 A2995 RMK A01 T03570041  RH  014%=      5-min Rain = 0
KEA1 252040Z 20015KT 36/04 A2995 RMK A01 T03580042  RH  014%=      5-min Rain = 0
KEA1 252041Z 19014KT 36/04 A2995 RMK A01 T03570042  RH  014%=      5-min Rain = 0
KEA1 252042Z 19014KT 36/04 A2995 RMK A01 T03590044  RH  014%=      5-min Rain = 0
KEA1 252043Z 18012G17KT 36/04 A2995 RMK A01 T03590043  RH  014%=      5-min Rain = 0
KEA1 252044Z 19013KT 36/04 A2995 RMK A01 T03580042  RH  014%=      5-min Rain = 0
KEA1 252045Z 19014KT 36/04 A2995 RMK A01 T03560042  RH  014%=      5-min Rain = 0
KEA1 252046Z 19011KT 36/04 A2995 RMK A01 T03600044  RH  014%=      5-min Rain = 0
KEA1 252047Z 20010G16KT 37/05 A2995 RMK A01 T03650046  RH  014%=      5-min Rain = 0
KEA1 252048Z 20016KT 37/05 A2995 RMK A01 T03670045  RH  014%=      5-min Rain = 0
KEA1 252049Z 20014KT 37/04 A2995 RMK A01 T03670043  RH  013%=      5-min Rain = 0
KEA1 252050Z 21011KT 36/04 A2995 RMK A01 T03620042  RH  014%=      5-min Rain = 0
KEA1 252051Z 21012KT 36/04 A2995 RMK A01 T03600043  RH  014%=      5-min Rain = 0
KEA1 252052Z 19013G18KT 36/05 A2995 RMK A01 T03620045  RH  014%=      5-min Rain = 0
KEA1 252053Z 20013KT 37/05 A2995 RMK A01 T03690046  RH  014%=      5-min Rain = 0
KEA1 252054Z 20014KT 37/04 A2995 RMK A01 T03680043  RH  013%=      5-min Rain = 0
KEA1 252055Z 18012KT 36/04 A2995 RMK A01 T03630043  RH  014%=      5-min Rain = 0
KEA1 252056Z 17016KT 36/04 A2994 RMK A01 T03610043  RH  014%=      5-min Rain = 0
KEA1 252057Z 17016KT 36/04 A2994 RMK A01 T03590043  RH  014%=      5-min Rain = 0
KEA1 252058Z 17013KT 36/04 A2995 RMK A01 T03570043  RH  014%=      5-min Rain = 0
KEA1 252059Z 17012G17KT 36/04 A2994 RMK A01 T03560044  RH  014%=      5-min Rain = 0
KEA1 252100Z 19011KT 36/05 A2995 RMK A01 T03580045  RH  014%=      5-min Rain = 0
KEA1 252101Z 20015KT 36/05 A2994 RMK A01 T03590045  RH  014%=      5-min Rain = 0
KEA1 252102Z 20016KT 36/04 A2994 RMK A01 T03600044  RH  014%=      5-min Rain = 0
KEA1 252103Z 19015KT 36/04 A2994 RMK A01 T03600044  RH  014%=      5-min Rain = 0
KEA1 252104Z 19015KT 36/04 A2994 RMK A01 T03590043  RH  014%=      5-min Rain = 0
KEA1 252105Z 19014G19KT 36/04 A2994 RMK A01 T03580043  RH  014%=      5-min Rain = 0
KEA1 252106Z 19011KT 36/04 A2994 RMK A01 T03580044  RH  014%=      5-min Rain = 0
KEA1 252107Z 20018KT 36/05 A2994 RMK A01 T03590045  RH  014%=      5-min Rain = 0
KEA1 252108Z 20015G21KT 36/04 A2994 RMK A01 T03610044  RH  014%=      5-min Rain = 0
KEA1 252109Z 19012G17KT 36/04 A2994 RMK A01 T03580043  RH  014%=      5-min Rain = 0
KEA1 252110Z 18014KT 36/04 A2994 RMK A01 T03580043  RH  014%=      5-min Rain = 0
KEA1 252111Z 19012KT 36/04 A2994 RMK A01 T03570043  RH  014%=      5-min Rain = 0
KEA1 252112Z 18011KT 36/04 A2994 RMK A01 T03570044  RH  014%=      5-min Rain = 0
KEA1 252113Z 17011KT 36/04 A2994 RMK A01 T03570044  RH  014%=      5-min Rain = 0
KEA1 252114Z 19015KT 36/05 A2994 RMK A01 T03600045  RH  014%=      5-min Rain = 0
KEA1 252115Z 18013KT 36/04 A2994 RMK A01 T03610044  RH  014%=      5-min Rain = 0
KEA1 252116Z 23012KT 36/04 A2994 RMK A01 T03610044  RH  014%=      5-min Rain = 0
KEA1 252117Z 21011KT 36/04 A2994 RMK A01 T03600044  RH  014%=      5-min Rain = 0
KEA1 252118Z 19011KT 36/05 A2994 RMK A01 T03610045  RH  014%=      5-min Rain = 0
KEA1 252119Z 17012KT 36/04 A2994 RMK A01 T03590043  RH  014%=      5-min Rain = 0
KEA1 252120Z 18017G22KT 36/04 A2994 RMK A01 T03590044  RH  014%=      5-min Rain = 0
KEA1 252121Z 18018KT 36/04 A2994 RMK A01 T03600043  RH  014%=      5-min Rain = 0
KEA1 252122Z 17015KT 36/04 A2994 RMK A01 T03570042  RH  014%=      5-min Rain = 0
KEA1 252123Z 18015G20KT 36/04 A2994 RMK A01 T03570043  RH  014%=      5-min Rain = 0
KEA1 252124Z 18012G17KT 36/04 A2994 RMK A01 T03560042  RH  014%=      5-min Rain = 0
KEA1 252125Z 18017KT 36/04 A2994 RMK A01 T03550043  RH  014%=      5-min Rain = 0
KEA1 252126Z 19014KT 36/04 A2994 RMK A01 T03570044  RH  014%=      5-min Rain = 0
KEA1 252127Z 18017G22KT 36/04 A2994 RMK A01 T03580044  RH  014%=      5-min Rain = 0
KEA1 252128Z 17018KT 36/04 A2994 RMK A01 T03570044  RH  014%=      5-min Rain = 0
KEA1 252129Z 17015KT 36/04 A2994 RMK A01 T03560044  RH  014%=      5-min Rain = 0
KEA1 252130Z 19015KT 36/05 A2994 RMK A01 T03570045  RH  014%=      5-min Rain = 0
KEA1 252131Z 18012KT 36/04 A2994 RMK A01 T03570043  RH  014%=      5-min Rain = 0
KEA1 252132Z 16016KT 35/04 A2994 RMK A01 T03540044  RH  014%=      5-min Rain = 0
KEA1 252133Z 17014KT 36/04 A2993 RMK A01 T03550043  RH  014%=      5-min Rain = 0
KEA1 252134Z 18012G17KT 35/04 A2993 RMK A01 T03540043  RH  014%=      5-min Rain = 0
KEA1 252135Z 19016KT 36/05 A2993 RMK A01 T03590045  RH  014%=      5-min Rain = 0
KEA1 252136Z 20017KT 36/04 A2993 RMK A01 T03600044  RH  014%=      5-min Rain = 0
KEA1 252137Z 20016G21KT 36/04 A2993 RMK A01 T03570043  RH  014%=      5-min Rain = 0
KEA1 252138Z 18017KT 36/04 A2993 RMK A01 T03570044  RH  014%=      5-min Rain = 0
KEA1 252139Z 18018KT 36/05 A2993 RMK A01 T03580045  RH  014%=      5-min Rain = 0
KEA1 252140Z 19013G18KT 36/04 A2993 RMK A01 T03570043  RH  014%=      5-min Rain = 0
KEA1 252141Z 18016KT 35/04 A2993 RMK A01 T03540042  RH  014%=      5-min Rain = 0
KEA1 252142Z 18013KT 35/04 A2993 RMK A01 T03530043  RH  014%=      5-min Rain = 0
KEA1 252143Z 16013KT 35/04 A2993 RMK A01 T03530044  RH  015%=      5-min Rain = 0
KEA1 252144Z 16016G21KT 36/05 A2993 RMK A01 T03570045  RH  014%=      5-min Rain = 0
KEA1 252145Z 19018KT 36/05 A2993 RMK A01 T03610046  RH  014%=      5-min Rain = 0
KEA1 252146Z 21015G20KT 36/05 A2993 RMK A01 T03630045  RH  014%=      5-min Rain = 0
KEA1 252147Z 19015KT 36/04 A2993 RMK A01 T03600043  RH  014%=      5-min Rain = 0
KEA1 252148Z 19014KT 36/04 A2993 RMK A01 T03600043  RH  014%=      5-min Rain = 0
KEA1 252149Z 19010KT 36/04 A2993 RMK A01 T03580043  RH  014%=      5-min Rain = 0
KEA1 252150Z 19010KT 36/04 A2993 RMK A01 T03570043  RH  014%=      5-min Rain = 0
KEA1 252151Z 19013KT 36/05 A2993 RMK A01 T03600046  RH  014%=      5-min Rain = 0
KEA1 252152Z 19018G23KT 36/05 A2993 RMK A01 T03620045  RH  014%=      5-min Rain = 0
KEA1 252153Z 18017G22KT 36/04 A2993 RMK A01 T03600044  RH  014%=      5-min Rain = 0
KEA1 252154Z 18016KT 36/04 A2993 RMK A01 T03590044  RH  014%=      5-min Rain = 0
KEA1 252155Z 17015KT 36/04 A2993 RMK A01 T03570043  RH  014%=      5-min Rain = 0
KEA1 252156Z 18016G21KT 36/04 A2993 RMK A01 T03560043  RH  014%=      5-min Rain = 0
KEA1 252157Z 18018KT 36/04 A2993 RMK A01 T03560043  RH  014%=      5-min Rain = 0
KEA1 252158Z 19017KT 35/04 A2993 RMK A01 T03540042  RH  014%=      5-min Rain = 0
KEA1 252159Z 18016KT 35/04 A2993 RMK A01 T03540043  RH  014%=      5-min Rain = 0
KEA1 252200Z 19020G26KT 35/04 A2992 RMK A01 T03540044  RH  014%=      5-min Rain = 0
KEA1 252201Z 18015G23KT 36/04 A2993 RMK A01 T03550042  RH  014%=      5-min Rain = 0
KEA1 252202Z 18015KT 35/04 A2993 RMK A01 T03530042  RH  014%=      5-min Rain = 0
KEA1 252203Z 18019KT 35/04 A2993 RMK A01 T03530043  RH  015%=      5-min Rain = 0
KEA1 252204Z 18018KT 35/04 A2993 RMK A01 T03530043  RH  015%=      5-min Rain = 0
KEA1 252205Z 18015KT 35/04 A2993 RMK A01 T03530043  RH  015%=      5-min Rain = 0
KEA1 252206Z 17014KT 35/04 A2993 RMK A01 T03540042  RH  014%=      5-min Rain = 0
KEA1 252207Z 18014KT 35/04 A2993 RMK A01 T03530042  RH  014%=      5-min Rain = 0
KEA1 252208Z 18019KT 35/04 A2992 RMK A01 T03530043  RH  014%=      5-min Rain = 0
KEA1 252209Z 16016KT 35/04 A2993 RMK A01 T03530042  RH  014%=      5-min Rain = 0
KEA1 252210Z 17012KT 35/04 A2993 RMK A01 T03530043  RH  015%=      5-min Rain = 0
KEA1 252211Z 18015KT 36/04 A2993 RMK A01 T03570044  RH  014%=      5-min Rain = 0
KEA1 252212Z 19014G19KT 36/04 A2993 RMK A01 T03580044  RH  014%=      5-min Rain = 0
KEA1 252213Z 19017G22KT 36/05 A2993 RMK A01 T03590045  RH  014%=      5-min Rain = 0
KEA1 252214Z 18019KT 36/04 A2992 RMK A01 T03560042  RH  014%=      5-min Rain = 0
KEA1 252215Z 18016KT 35/04 A2993 RMK A01 T03540042  RH  014%=      5-min Rain = 0
KEA1 252216Z 18013KT 35/04 A2993 RMK A01 T03520042  RH  015%=      5-min Rain = 0
KEA1 252217Z 18009KT 35/04 A2993 RMK A01 T03520043  RH  015%=      5-min Rain = 0
KEA1 252218Z 17013G20KT 36/05 A2993 RMK A01 T03570046  RH  015%=      5-min Rain = 0
KEA1 252219Z 17019KT 36/04 A2992 RMK A01 T03590044  RH  014%=      5-min Rain = 0
KEA1 252220Z 17014KT 36/04 A2992 RMK A01 T03560043  RH  014%=      5-min Rain = 0
KEA1 252221Z 18016KT 36/05 A2992 RMK A01 T03580045  RH  014%=      5-min Rain = 0
KEA1 252222Z 17017KT 36/04 A2992 RMK A01 T03590044  RH  014%=      5-min Rain = 0
KEA1 252223Z 17016KT 36/04 A2992 RMK A01 T03560042  RH  014%=      5-min Rain = 0
KEA1 252224Z 17017KT 35/04 A2992 RMK A01 T03530043  RH  014%=      5-min Rain = 0
KEA1 252225Z 19013KT 35/04 A2992 RMK A01 T03520042  RH  015%=      5-min Rain = 0
KEA1 252226Z 19015KT 35/04 A2992 RMK A01 T03530044  RH  015%=      5-min Rain = 0
KEA1 252227Z 20012KT 35/04 A2992 RMK A01 T03540043  RH  015%=      5-min Rain = 0
KEA1 252228Z 20017KT 36/04 A2992 RMK A01 T03550044  RH  014%=      5-min Rain = 0
KEA1 252229Z 18013KT 35/04 A2992 RMK A01 T03540043  RH  014%=      5-min Rain = 0
KEA1 252230Z 17014G20KT 35/04 A2992 RMK A01 T03540044  RH  015%=      5-min Rain = 0
KEA1 252231Z 18017G22KT 36/04 A2992 RMK A01 T03570044  RH  014%=      5-min Rain = 0
KEA1 252232Z 19018KT 36/04 A2992 RMK A01 T03550043  RH  014%=      5-min Rain = 0
KEA1 252233Z 19016KT 35/04 A2992 RMK A01 T03540043  RH  014%=      5-min Rain = 0
KEA1 252234Z 18016KT 35/04 A2992 RMK A01 T03540043  RH  014%=      5-min Rain = 0
KEA1 252235Z 17012KT 35/04 A2992 RMK A01 T03540043  RH  014%=      5-min Rain = 0
KEA1 252236Z 18014KT 35/04 A2992 RMK A01 T03540044  RH  014%=      5-min Rain = 0
KEA1 252237Z 19017KT 35/04 A2992 RMK A01 T03540042  RH  014%=      5-min Rain = 0
KEA1 252238Z 19015KT 35/04 A2992 RMK A01 T03500042  RH  015%=      5-min Rain = 0
KEA1 252239Z 18016G21KT 35/04 A2992 RMK A01 T03490042  RH  015%=      5-min Rain = 0
KEA1 252240Z 17018KT 35/04 A2992 RMK A01 T03500042  RH  015%=      5-min Rain = 0
KEA1 252241Z 17015KT 35/04 A2992 RMK A01 T03490042  RH  015%=      5-min Rain = 0
KEA1 252242Z 17015KT 35/04 A2992 RMK A01 T03500042  RH  015%=      5-min Rain = 0
KEA1 252243Z 18016KT 35/04 A2992 RMK A01 T03510043  RH  015%=      5-min Rain = 0
KEA1 252244Z 19016KT 35/04 A2992 RMK A01 T03520043  RH  015%=      5-min Rain = 0
KEA1 252245Z 18016KT 35/04 A2992 RMK A01 T03510043  RH  015%=      5-min Rain = 0
KEA1 252246Z 17015KT 35/04 A2992 RMK A01 T03500043  RH  015%=      5-min Rain = 0
KEA1 252247Z 18019G24KT 35/04 A2992 RMK A01 T03510044  RH  015%=      5-min Rain = 0
KEA1 252248Z 18019G24KT 35/04 A2992 RMK A01 T03510044  RH  015%=      5-min Rain = 0
KEA1 252249Z 17015KT 35/04 A2992 RMK A01 T03500043  RH  015%=      5-min Rain = 0
KEA1 252250Z 17017KT 35/04 A2992 RMK A01 T03500043  RH  015%=      5-min Rain = 0
KEA1 252251Z 18014KT 35/04 A2992 RMK A01 T03500043  RH  015%=      5-min Rain = 0
KEA1 252252Z 18016KT 35/04 A2992 RMK A01 T03500043  RH  015%=      5-min Rain = 0
KEA1 252253Z 18015KT 35/04 A2992 RMK A01 T03500043  RH  015%=      5-min Rain = 0
KEA1 252254Z 18015KT 35/04 A2992 RMK A01 T03510044  RH  015%=      5-min Rain = 0
KEA1 252255Z 18014KT 35/04 A2992 RMK A01 T03510044  RH  015%=      5-min Rain = 0
KEA1 252256Z 18014KT 35/04 A2992 RMK A01 T03500044  RH  015%=      5-min Rain = 0
KEA1 252257Z 19014G21KT 35/04 A2992 RMK A01 T03500044  RH  015%=      5-min Rain = 0
KEA1 252258Z 18017KT 35/04 A2992 RMK A01 T03520044  RH  015%=      5-min Rain = 0
KEA1 252259Z 19014KT 35/04 A2992 RMK A01 T03500043  RH  015%=      5-min Rain = 0
KEA1 252300Z 19014KT 35/04 A2992 RMK A01 T03480043  RH  015%=      5-min Rain = 0
KEA1 252301Z 18012KT 35/04 A2992 RMK A01 T03490044  RH  015%=      5-min Rain = 0
KEA1 252302Z 18014KT 35/05 A2992 RMK A01 T03520045  RH  015%=      5-min Rain = 0
KEA1 252303Z 18014KT 35/04 A2992 RMK A01 T03520043  RH  015%=      5-min Rain = 0
KEA1 252304Z 18014KT 35/04 A2992 RMK A01 T03490043  RH  015%=      5-min Rain = 0
KEA1 252305Z 17014KT 35/04 A2992 RMK A01 T03490043  RH  015%=      5-min Rain = 0
KEA1 252306Z 16014KT 35/04 A2992 RMK A01 T03480043  RH  015%=      5-min Rain = 0
KEA1 252307Z 17018KT 35/04 A2992 RMK A01 T03480043  RH  015%=      5-min Rain = 0
KEA1 252308Z 17017KT 35/04 A2992 RMK A01 T03480043  RH  015%=      5-min Rain = 0
KEA1 252309Z 17012KT 35/04 A2992 RMK A01 T03480043  RH  015%=      5-min Rain = 0
KEA1 252310Z 17013KT 35/04 A2992 RMK A01 T03470043  RH  015%=      5-min Rain = 0
KEA1 252311Z 17014KT 35/04 A2992 RMK A01 T03480043  RH  015%=      5-min Rain = 0
KEA1 252312Z 17012KT 35/04 A2992 RMK A01 T03470042  RH  015%=      5-min Rain = 0
KEA1 252313Z 17012KT 35/04 A2992 RMK A01 T03460043  RH  015%=      5-min Rain = 0
KEA1 252314Z 17015KT 35/04 A2992 RMK A01 T03470043  RH  015%=      5-min Rain = 0
KEA1 252315Z 17018KT 35/04 A2992 RMK A01 T03460042  RH  015%=      5-min Rain = 0
KEA1 252316Z 17018KT 35/04 A2992 RMK A01 T03450041  RH  015%=      5-min Rain = 0
KEA1 252317Z 16016KT 34/04 A2992 RMK A01 T03430041  RH  015%=      5-min Rain = 0
KEA1 252318Z 16017KT 34/04 A2992 RMK A01 T03430042  RH  015%=      5-min Rain = 0
KEA1 252319Z 16019KT 34/04 A2992 RMK A01 T03430042  RH  015%=      5-min Rain = 0
KEA1 252320Z 16017KT 34/04 A2992 RMK A01 T03430041  RH  015%=      5-min Rain = 0
KEA1 252321Z 17015KT 34/04 A2992 RMK A01 T03430042  RH  015%=      5-min Rain = 0
KEA1 252322Z 17016KT 34/04 A2992 RMK A01 T03440042  RH  015%=      5-min Rain = 0
KEA1 252323Z 17015KT 34/04 A2992 RMK A01 T03440041  RH  015%=      5-min Rain = 0
KEA1 252324Z 17017KT 34/04 A2992 RMK A01 T03430041  RH  015%=      5-min Rain = 0
KEA1 252325Z 17017KT 34/04 A2992 RMK A01 T03420041  RH  015%=      5-min Rain = 0
KEA1 252326Z 17013KT 34/04 A2992 RMK A01 T03420040  RH  015%=      5-min Rain = 0
KEA1 252327Z 16015KT 34/04 A2992 RMK A01 T03420041  RH  015%=      5-min Rain = 0
KEA1 252328Z 16015KT 34/04 A2992 RMK A01 T03420042  RH  015%=      5-min Rain = 0
KEA1 252329Z 17013G18KT 34/04 A2992 RMK A01 T03410041  RH  015%=      5-min Rain = 0
KEA1 252330Z 17014KT 34/04 A2992 RMK A01 T03410041  RH  015%=      5-min Rain = 0
KEA1 252331Z 17018KT 34/04 A2992 RMK A01 T03410042  RH  015%=      5-min Rain = 0
KEA1 252332Z 18018KT 34/04 A2992 RMK A01 T03420041  RH  015%=      5-min Rain = 0
KEA1 252333Z 18016KT 34/04 A2992 RMK A01 T03400040  RH  015%=      5-min Rain = 0
KEA1 252334Z 17015KT 34/04 A2992 RMK A01 T03400041  RH  015%=      5-min Rain = 0
KEA1 252335Z 17015KT 34/04 A2992 RMK A01 T03400041  RH  015%=      5-min Rain = 0
KEA1 252336Z 17014KT 34/04 A2992 RMK A01 T03400042  RH  015%=      5-min Rain = 0
KEA1 252337Z 17014KT 34/04 A2992 RMK A01 T03400042  RH  015%=      5-min Rain = 0
KEA1 252338Z 18014G19KT 34/04 A2992 RMK A01 T03400041  RH  015%=      5-min Rain = 0
KEA1 252339Z 17016KT 34/04 A2992 RMK A01 T03400041  RH  015%=      5-min Rain = 0
KEA1 252340Z 17017KT 34/04 A2992 RMK A01 T03390040  RH  015%=      5-min Rain = 0
KEA1 252341Z 17017KT 34/04 A2992 RMK A01 T03380040  RH  015%=      5-min Rain = 0
KEA1 252342Z 17017KT 34/04 A2992 RMK A01 T03380040  RH  015%=      5-min Rain = 0
KEA1 252343Z 17017KT 34/04 A2992 RMK A01 T03370040  RH  016%=      5-min Rain = 0
KEA1 252344Z 17016KT 34/04 A2992 RMK A01 T03360040  RH  016%=      5-min Rain = 0
KEA1 252345Z 17014KT 34/04 A2992 RMK A01 T03360040  RH  016%=      5-min Rain = 0
KEA1 252346Z 17016G22KT 34/04 A2992 RMK A01 T03360040  RH  016%=      5-min Rain = 0
KEA1 252347Z 17017KT 34/04 A2992 RMK A01 T03350039  RH  016%=      5-min Rain = 0
KEA1 252348Z 17016KT 34/04 A2992 RMK A01 T03350039  RH  016%=      5-min Rain = 0
KEA1 252349Z 16014KT 33/04 A2992 RMK A01 T03340039  RH  016%=      5-min Rain = 0
KEA1 252350Z 16015KT 33/04 A2992 RMK A01 T03340039  RH  016%=      5-min Rain = 0
KEA1 252351Z 17017KT 33/04 A2992 RMK A01 T03340039  RH  016%=      5-min Rain = 0
KEA1 252352Z 17017KT 33/04 A2992 RMK A01 T03340039  RH  016%=      5-min Rain = 0
KEA1 252353Z 17014KT 33/04 A2992 RMK A01 T03330039  RH  016%=      5-min Rain = 0
KEA1 252354Z 17014KT 33/04 A2992 RMK A01 T03340040  RH  016%=      5-min Rain = 0
KEA1 252355Z 18015KT 33/04 A2992 RMK A01 T03330039  RH  016%=      5-min Rain = 0
KEA1 252356Z 17015KT 33/04 A2992 RMK A01 T03330040  RH  016%=      5-min Rain = 0
KEA1 252357Z 17013KT 33/04 A2992 RMK A01 T03320040  RH  016%=      5-min Rain = 0
KEA1 252358Z 17014KT 33/04 A2992 RMK A01 T03320040  RH  016%=      5-min Rain = 0
KEA1 252359Z 17013KT 33/04 A2992 RMK A01 T03310040  RH  016%=      5-min Rain = 0
KEA1 260000Z 17016KT 33/04 A2992 RMK A01 T03310039  RH  016%=      5-min Rain = 0
KEA1 260001Z 17015KT 33/04 A2992 RMK A01 T03300039  RH  016%=      5-min Rain = 0
KEA1 260002Z 16016KT 33/04 A2992 RMK A01 T03300039  RH  016%=      5-min Rain = 0
KEA1 260003Z 17015KT 33/04 A2992 RMK A01 T03290038  RH  016%=      5-min Rain = 0
KEA1 260004Z 16014KT 33/04 A2992 RMK A01 T03290039  RH  016%=      5-min Rain = 0
KEA1 260005Z 17012KT 33/04 A2992 RMK A01 T03280039  RH  016%=      5-min Rain = 0
KEA1 260006Z 16012KT 33/04 A2992 RMK A01 T03270039  RH  016%=      5-min Rain = 0
KEA1 260007Z 16011KT 33/04 A2992 RMK A01 T03260039  RH  016%=      5-min Rain = 0
KEA1 260008Z 17012KT 33/04 A2992 RMK A01 T03250038  RH  016%=      5-min Rain = 0
KEA1 260009Z 16011KT 32/04 A2992 RMK A01 T03240038  RH  016%=      5-min Rain = 0
KEA1 260010Z 16012KT 32/04 A2992 RMK A01 T03240038  RH  017%=      5-min Rain = 0
KEA1 260011Z 16013KT 32/04 A2992 RMK A01 T03230038  RH  017%=      5-min Rain = 0
KEA1 260012Z 16013KT 32/04 A2992 RMK A01 T03230038  RH  017%=      5-min Rain = 0
KEA1 260013Z 16014KT 32/04 A2992 RMK A01 T03230039  RH  017%=      5-min Rain = 0
KEA1 260014Z 16012KT 32/04 A2992 RMK A01 T03220038  RH  017%=      5-min Rain = 0
KEA1 260015Z 16012KT 32/04 A2992 RMK A01 T03220039  RH  017%=      5-min Rain = 0
KEA1 260016Z 16013KT 32/04 A2992 RMK A01 T03210039  RH  017%=      5-min Rain = 0
KEA1 260017Z 16012KT 32/04 A2992 RMK A01 T03200039  RH  017%=      5-min Rain = 0
KEA1 260018Z 16010KT 32/04 A2993 RMK A01 T03200039  RH  017%=      5-min Rain = 0
KEA1 260019Z 16011KT 32/04 A2993 RMK A01 T03180039  RH  017%=      5-min Rain = 0
KEA1 260020Z 16015KT 32/04 A2992 RMK A01 T03170039  RH  017%=      5-min Rain = 0
KEA1 260021Z 16013KT 32/04 A2992 RMK A01 T03170038  RH  017%=      5-min Rain = 0
KEA1 260022Z 16014KT 32/04 A2992 RMK A01 T03170038  RH  017%=      5-min Rain = 0
KEA1 260023Z 16015KT 32/04 A2992 RMK A01 T03160038  RH  017%=      5-min Rain = 0
KEA1 260024Z 16014KT 32/04 A2993 RMK A01 T03160037  RH  017%=      5-min Rain = 0
KEA1 260025Z 16014KT 32/04 A2993 RMK A01 T03150037  RH  017%=      5-min Rain = 0
KEA1 260026Z 16014KT 31/04 A2993 RMK A01 T03140037  RH  017%=      5-min Rain = 0
KEA1 260027Z 16013KT 31/04 A2993 RMK A01 T03140037  RH  017%=      5-min Rain = 0
KEA1 260028Z 16014KT 31/04 A2993 RMK A01 T03120037  RH  017%=      5-min Rain = 0
KEA1 260029Z 16013KT 31/04 A2993 RMK A01 T03110037  RH  018%=      5-min Rain = 0
KEA1 260030Z 16013KT 31/04 A2993 RMK A01 T03110037  RH  018%=      5-min Rain = 0
KEA1 260031Z 16015KT 31/04 A2993 RMK A01 T03100037  RH  018%=      5-min Rain = 0
KEA1 260032Z 16014KT 31/04 A2993 RMK A01 T03090036  RH  018%=      5-min Rain = 0
KEA1 260033Z 16014KT 31/04 A2993 RMK A01 T03080036  RH  018%=      5-min Rain = 0
KEA1 260034Z 16013KT 31/04 A2993 RMK A01 T03080036  RH  018%=      5-min Rain = 0
KEA1 260035Z 16014KT 31/04 A2993 RMK A01 T03070035  RH  018%=      5-min Rain = 0
KEA1 260036Z 16014KT 31/04 A2993 RMK A01 T03060035  RH  018%=      5-min Rain = 0
KEA1 260037Z 16014KT 31/04 A2993 RMK A01 T03060035  RH  018%=      5-min Rain = 0
KEA1 260038Z 16013KT 31/03 A2993 RMK A01 T03050034  RH  018%=      5-min Rain = 0
KEA1 260039Z 16014KT 30/03 A2993 RMK A01 T03040033  RH  018%=      5-min Rain = 0
KEA1 260040Z 16014KT 30/03 A2993 RMK A01 T03040033  RH  018%=      5-min Rain = 0
KEA1 260041Z 16013KT 30/03 A2993 RMK A01 T03040033  RH  018%=      5-min Rain = 0
KEA1 260042Z 16013KT 30/03 A2993 RMK A01 T03030033  RH  018%=      5-min Rain = 0
KEA1 260043Z 16013KT 30/03 A2993 RMK A01 T03020033  RH  018%=      5-min Rain = 0
KEA1 260044Z 16013KT 30/03 A2993 RMK A01 T03010032  RH  018%=      5-min Rain = 0
KEA1 260045Z 16013KT 30/03 A2993 RMK A01 T03010032  RH  018%=      5-min Rain = 0
KEA1 260046Z 16013KT 30/03 A2993 RMK A01 T03000031  RH  018%=      5-min Rain = 0
KEA1 260047Z 16011KT 30/03 A2993 RMK A01 T03000031  RH  018%=      5-min Rain = 0
KEA1 260048Z 16013KT 30/03 A2993 RMK A01 T02990031  RH  018%=      5-min Rain = 0
KEA1 260049Z 16012KT 30/03 A2993 RMK A01 T02980031  RH  018%=      5-min Rain = 0
KEA1 260050Z 16013KT 30/03 A2993 RMK A01 T02980031  RH  018%=      5-min Rain = 0
KEA1 260051Z 16013KT 30/03 A2993 RMK A01 T02970031  RH  018%=      5-min Rain = 0
KEA1 260052Z 16013KT 30/03 A2993 RMK A01 T02960031  RH  018%=      5-min Rain = 0
KEA1 260053Z 16013KT 30/03 A2993 RMK A01 T02960030  RH  018%=      5-min Rain = 0
KEA1 260054Z 16012KT 30/03 A2993 RMK A01 T02950030  RH  018%=      5-min Rain = 0
KEA1 260055Z 16012KT 29/03 A2993 RMK A01 T02940030  RH  018%=      5-min Rain = 0
KEA1 260056Z 16012KT 29/03 A2993 RMK A01 T02930030  RH  019%=      5-min Rain = 0
KEA1 260057Z 16012KT 29/03 A2993 RMK A01 T02920029  RH  019%=      5-min Rain = 0
KEA1 260058Z 15011KT 29/03 A2993 RMK A01 T02920029  RH  019%=      5-min Rain = 0
KEA1 260059Z 16011KT 29/03 A2993 RMK A01 T02900028  RH  019%=      5-min Rain = 0
KEA1 260100Z 16011KT 29/03 A2993 RMK A01 T02890028  RH  019%=      5-min Rain = 0
KEA1 260101Z 16012KT 29/03 A2993 RMK A01 T02880028  RH  019%=      5-min Rain = 0
KEA1 260102Z 16011KT 29/03 A2993 RMK A01 T02880027  RH  019%=      5-min Rain = 0
KEA1 260103Z 15012KT 29/03 A2993 RMK A01 T02870027  RH  019%=      5-min Rain = 0
KEA1 260104Z 16011KT 29/03 A2993 RMK A01 T02870026  RH  019%=      5-min Rain = 0
KEA1 260105Z 15011KT 29/03 A2994 RMK A01 T02870026  RH  019%=      5-min Rain = 0
KEA1 260106Z 15011KT 29/03 A2994 RMK A01 T02850026  RH  019%=      5-min Rain = 0
KEA1 260107Z 16010KT 28/03 A2994 RMK A01 T02830025  RH  019%=      5-min Rain = 0
KEA1 260108Z 16010KT 28/03 A2994 RMK A01 T02820025  RH  019%=      5-min Rain = 0
KEA1 260109Z 16011KT 28/03 A2994 RMK A01 T02810025  RH  019%=      5-min Rain = 0
KEA1 260110Z 15011KT 28/02 A2994 RMK A01 T02800024  RH  019%=      5-min Rain = 0
KEA1 260111Z 15011KT 28/02 A2994 RMK A01 T02800024  RH  019%=      5-min Rain = 0
KEA1 260112Z 15011KT 28/02 A2994 RMK A01 T02800024  RH  019%=      5-min Rain = 0
KEA1 260113Z 15011KT 28/02 A2993 RMK A01 T02790023  RH  019%=      5-min Rain = 0
KEA1 260114Z 15011KT 28/02 A2993 RMK A01 T02790022  RH  019%=      5-min Rain = 0
KEA1 260115Z 15011KT 28/02 A2993 RMK A01 T02790022  RH  019%=      5-min Rain = 0
KEA1 260116Z 15011KT 28/02 A2993 RMK A01 T02780021  RH  019%=      5-min Rain = 0
KEA1 260117Z 15011KT 28/02 A2994 RMK A01 T02780021  RH  019%=      5-min Rain = 0
KEA1 260118Z 16011KT 28/02 A2994 RMK A01 T02780020  RH  019%=      5-min Rain = 0
KEA1 260119Z 15012KT 28/02 A2994 RMK A01 T02780020  RH  019%=      5-min Rain = 0
KEA1 260120Z 15011KT 28/02 A2994 RMK A01 T02780019  RH  019%=      5-min Rain = 0
KEA1 260121Z 15013KT 28/02 A2994 RMK A01 T02780018  RH  019%=      5-min Rain = 0
KEA1 260122Z 15011KT 28/02 A2994 RMK A01 T02770016  RH  018%=      5-min Rain = 0
KEA1 260123Z 15012KT 28/02 A2994 RMK A01 T02780016  RH  018%=      5-min Rain = 0
KEA1 260124Z 15013KT 28/02 A2994 RMK A01 T02780015  RH  018%=      5-min Rain = 0
KEA1 260125Z 15012KT 28/01 A2994 RMK A01 T02780014  RH  018%=      5-min Rain = 0
KEA1 260126Z 15013KT 28/01 A2994 RMK A01 T02780014  RH  018%=      5-min Rain = 0
KEA1 260127Z 15013KT 28/01 A2994 RMK A01 T02780013  RH  018%=      5-min Rain = 0
KEA1 260128Z 15013KT 28/01 A2994 RMK A01 T02780012  RH  018%=      5-min Rain = 0
KEA1 260129Z 16013KT 28/01 A2994 RMK A01 T02780012  RH  018%=      5-min Rain = 0
KEA1 260130Z 15013KT 28/01 A2994 RMK A01 T02770011  RH  018%=      5-min Rain = 0
KEA1 260131Z 15013KT 28/01 A2994 RMK A01 T02770010  RH  018%=      5-min Rain = 0
KEA1 260132Z 16013KT 28/01 A2994 RMK A01 T02760009  RH  018%=      5-min Rain = 0
KEA1 260133Z 16011KT 28/01 A2994 RMK A01 T02760008  RH  018%=      5-min Rain = 0
KEA1 260134Z 15013KT 28/01 A2994 RMK A01 T02760008  RH  018%=      5-min Rain = 0
KEA1 260135Z 16012KT 28/01 A2994 RMK A01 T02750007  RH  018%=      5-min Rain = 0
KEA1 260136Z 15013KT 28/01 A2994 RMK A01 T02750007  RH  018%=      5-min Rain = 0
KEA1 260137Z 16014KT 28/01 A2994 RMK A01 T02750006  RH  017%=      5-min Rain = 0
KEA1 260138Z 16013KT 28/01 A2994 RMK A01 T02750006  RH  017%=      5-min Rain = 0
KEA1 260139Z 16012KT 28/01 A2994 RMK A01 T02750006  RH  017%=      5-min Rain = 0
KEA1 260140Z 16014KT 28/01 A2994 RMK A01 T02750006  RH  017%=      5-min Rain = 0
KEA1 260141Z 16012KT 27/01 A2994 RMK A01 T02740005  RH  017%=      5-min Rain = 0
KEA1 260142Z 16014KT 27/01 A2994 RMK A01 T02740005  RH  017%=      5-min Rain = 0
KEA1 260143Z 15013KT 27/00 A2994 RMK A01 T02740004  RH  017%=      5-min Rain = 0
KEA1 260144Z 16013KT 27/00 A2994 RMK A01 T02730003  RH  017%=      5-min Rain = 0
KEA1 260145Z 16011KT 27/00 A2995 RMK A01 T02730003  RH  017%=      5-min Rain = 0
KEA1 260146Z 16013KT 27/00 A2995 RMK A01 T02710003  RH  017%=      5-min Rain = 0
KEA1 260147Z 16012KT 27/00 A2995 RMK A01 T02700003  RH  017%=      5-min Rain = 0
KEA1 260148Z 15012KT 27/00 A2995 RMK A01 T02700002  RH  017%=      5-min Rain = 0
KEA1 260149Z 16012KT 27/00 A2995 RMK A01 T02690002  RH  018%=      5-min Rain = 0
KEA1 260150Z 16011KT 27/00 A2995 RMK A01 T02680001  RH  018%=      5-min Rain = 0
KEA1 260151Z 15012KT 27/00 A2995 RMK A01 T02680002  RH  018%=      5-min Rain = 0
KEA1 260152Z 15011KT 27/00 A2995 RMK A01 T02670001  RH  018%=      5-min Rain = 0
KEA1 260153Z 15012KT 27/00 A2995 RMK A01 T02660001  RH  018%=      5-min Rain = 0
KEA1 260154Z 15012KT 27/00 A2995 RMK A01 T02660001  RH  018%=      5-min Rain = 0
KEA1 260155Z 15011KT 27/00 A2995 RMK A01 T02650001  RH  018%=      5-min Rain = 0
KEA1 260156Z 15011KT 26/00 A2995 RMK A01 T02640000  RH  018%=      5-min Rain = 0
KEA1 260157Z 15011KT 26/00 A2995 RMK A01 T02630000  RH  018%=      5-min Rain = 0
KEA1 260158Z 15011KT 26/00 A2995 RMK A01 T02620000  RH  018%=      5-min Rain = 0
KEA1 260159Z 15012KT 26/00 A2995 RMK A01 T026100-0  RH  018%=      5-min Rain = 0
KEA1 260200Z 15011KT 26/00 A2995 RMK A01 T026100-0  RH  018%=      5-min Rain = 0
KEA1 260201Z 15010KT 26/00 A2995 RMK A01 T026000-0  RH  018%=      5-min Rain = 0
KEA1 260202Z 16011KT 26/M00 A2995 RMK A01 T02591001  RH  018%=      5-min Rain = 0
KEA1 260203Z 15012KT 26/M00 A2995 RMK A01 T02581001  RH  018%=      5-min Rain = 0
KEA1 260204Z 15011KT 26/00 A2995 RMK A01 T025800-0  RH  018%=      5-min Rain = 0
KEA1 260205Z 15011KT 26/M00 A2995 RMK A01 T02571001  RH  018%=      5-min Rain = 0
KEA1 260206Z 15011KT 26/00 A2995 RMK A01 T025600-0  RH  019%=      5-min Rain = 0
KEA1 260207Z 15012KT 26/M00 A2995 RMK A01 T02561001  RH  019%=      5-min Rain = 0
KEA1 260208Z 15012KT 26/00 A2995 RMK A01 T025600-0  RH  019%=      5-min Rain = 0
KEA1 260209Z 15011KT 26/M00 A2995 RMK A01 T02561001  RH  019%=      5-min Rain = 0
KEA1 260210Z 15013KT 26/M00 A2995 RMK A01 T02551001  RH  019%=      5-min Rain = 0
KEA1 260211Z 15011KT 26/M00 A2995 RMK A01 T02551001  RH  019%=      5-min Rain = 0
KEA1 260212Z 15012KT 26/M00 A2995 RMK A01 T02551001  RH  019%=      5-min Rain = 0
KEA1 260213Z 15013KT 26/M00 A2996 RMK A01 T02551001  RH  019%=      5-min Rain = 0
KEA1 260214Z 15012KT 26/M00 A2995 RMK A01 T02551002  RH  019%=      5-min Rain = 0
KEA1 260215Z 15014KT 25/M00 A2995 RMK A01 T02541002  RH  018%=      5-min Rain = 0
KEA1 260216Z 15013KT 26/M00 A2996 RMK A01 T02551003  RH  018%=      5-min Rain = 0
KEA1 260217Z 15012KT 26/M00 A2996 RMK A01 T02551002  RH  018%=      5-min Rain = 0
KEA1 260218Z 15013KT 26/M00 A2996 RMK A01 T02551003  RH  018%=      5-min Rain = 0
KEA1 260219Z 15015KT 26/M00 A2996 RMK A01 T02551003  RH  018%=      5-min Rain = 0
KEA1 260220Z 16015KT 26/M00 A2996 RMK A01 T02551004  RH  018%=      5-min Rain = 0
KEA1 260221Z 16013KT 26/M00 A2996 RMK A01 T02551004  RH  018%=      5-min Rain = 0
KEA1 260222Z 16014KT 26/M00 A2996 RMK A01 T02551004  RH  018%=      5-min Rain = 0
KEA1 260223Z 16014KT 26/M00 A2996 RMK A01 T02551004  RH  018%=      5-min Rain = 0
KEA1 260224Z 16014KT 25/M01 A2996 RMK A01 T02541005  RH  018%=      5-min Rain = 0
KEA1 260225Z 16013KT 26/M01 A2996 RMK A01 T02551005  RH  018%=      5-min Rain = 0
KEA1 260226Z 16012KT 25/M01 A2996 RMK A01 T02541005  RH  018%=      5-min Rain = 0
KEA1 260227Z 16014KT 25/M01 A2996 RMK A01 T02541006  RH  018%=      5-min Rain = 0
KEA1 260228Z 16015KT 25/M01 A2996 RMK A01 T02541006  RH  018%=      5-min Rain = 0
KEA1 260229Z 16014KT 25/M01 A2996 RMK A01 T02531006  RH  018%=      5-min Rain = 0
KEA1 260230Z 16014KT 25/M01 A2996 RMK A01 T02531006  RH  018%=      5-min Rain = 0
KEA1 260231Z 16013KT 25/M01 A2996 RMK A01 T02531006  RH  018%=      5-min Rain = 0
KEA1 260232Z 16012KT 25/M01 A2996 RMK A01 T02521006  RH  018%=      5-min Rain = 0
KEA1 260233Z 16014KT 25/M01 A2996 RMK A01 T02511006  RH  018%=      5-min Rain = 0
KEA1 260234Z 16015KT 25/M01 A2996 RMK A01 T02511006  RH  018%=      5-min Rain = 0
KEA1 260235Z 16014KT 25/M01 A2996 RMK A01 T02501006  RH  018%=      5-min Rain = 0
KEA1 260236Z 16015KT 25/M01 A2996 RMK A01 T02501006  RH  018%=      5-min Rain = 0
KEA1 260237Z 16014KT 25/M01 A2996 RMK A01 T02501006  RH  018%=      5-min Rain = 0
KEA1 260238Z 16013KT 25/M01 A2996 RMK A01 T02481006  RH  019%=      5-min Rain = 0
KEA1 260239Z 16014KT 25/M01 A2996 RMK A01 T02481006  RH  019%=      5-min Rain = 0
KEA1 260240Z 16013KT 25/M01 A2996 RMK A01 T02481006  RH  019%=      5-min Rain = 0
KEA1 260241Z 16015KT 25/M01 A2996 RMK A01 T02471007  RH  019%=      5-min Rain = 0
KEA1 260242Z 16015KT 25/M01 A2996 RMK A01 T02471007  RH  019%=      5-min Rain = 0
KEA1 260243Z 16014KT 25/M01 A2996 RMK A01 T02471007  RH  019%=      5-min Rain = 0
KEA1 260244Z 16014KT 25/M01 A2996 RMK A01 T02471007  RH  019%=      5-min Rain = 0
KEA1 260245Z 16014KT 25/M01 A2997 RMK A01 T02461007  RH  019%=      5-min Rain = 0
KEA1 260246Z 15013KT 25/M01 A2997 RMK A01 T02461007  RH  019%=      5-min Rain = 0
KEA1 260247Z 16014KT 25/M01 A2997 RMK A01 T02451007  RH  019%=      5-min Rain = 0
KEA1 260248Z 16015KT 25/M01 A2996 RMK A01 T02451007  RH  019%=      5-min Rain = 0
KEA1 260249Z 16014KT 25/M01 A2996 RMK A01 T02451007  RH  019%=      5-min Rain = 0
KEA1 260250Z 15013KT 25/M01 A2997 RMK A01 T02451007  RH  019%=      5-min Rain = 0
KEA1 260251Z 16015KT 25/M01 A2997 RMK A01 T02451007  RH  019%=      5-min Rain = 0
KEA1 260252Z 16014KT 25/M01 A2997 RMK A01 T02451007  RH  019%=      5-min Rain = 0
KEA1 260253Z 16015KT 25/M01 A2997 RMK A01 T02451007  RH  019%=      5-min Rain = 0
KEA1 260254Z 16015KT 25/M01 A2997 RMK A01 T02451007  RH  019%=      5-min Rain = 0
KEA1 260255Z 16014KT 25/M01 A2997 RMK A01 T02461007  RH  019%=      5-min Rain = 0
KEA1 260256Z 16014KT 25/M01 A2997 RMK A01 T02451007  RH  019%=      5-min Rain = 0
KEA1 260257Z 16015KT 25/M01 A2997 RMK A01 T02451007  RH  019%=      5-min Rain = 0
KEA1 260258Z 16015KT 25/M01 A2997 RMK A01 T02451006  RH  019%=      5-min Rain = 0
KEA1 260259Z 16014KT 25/M01 A2997 RMK A01 T02451007  RH  019%=      5-min Rain = 0
KEA1 260300Z 16014KT 24/M01 A2997 RMK A01 T02441007  RH  019%=      5-min Rain = 0
KEA1 260301Z 16015KT 24/M01 A2997 RMK A01 T02441007  RH  019%=      5-min Rain = 0
KEA1 260302Z 16015KT 24/M01 A2997 RMK A01 T02441006  RH  019%=      5-min Rain = 0
KEA1 260303Z 16015KT 24/M01 A2997 RMK A01 T02431006  RH  019%=      5-min Rain = 0
KEA1 260304Z 16014KT 24/M01 A2997 RMK A01 T02441006  RH  019%=      5-min Rain = 0
KEA1 260305Z 15014KT 24/M01 A2997 RMK A01 T02441006  RH  019%=      5-min Rain = 0
KEA1 260306Z 15014KT 24/M01 A2997 RMK A01 T02441005  RH  019%=      5-min Rain = 0
KEA1 260307Z 15014KT 24/M01 A2997 RMK A01 T02421006  RH  019%=      5-min Rain = 0
KEA1 260308Z 15014KT 24/M01 A2997 RMK A01 T02421005  RH  019%=      5-min Rain = 0
KEA1 260309Z 16013KT 24/M01 A2997 RMK A01 T02421006  RH  019%=      5-min Rain = 0
KEA1 260310Z 16014KT 24/M01 A2997 RMK A01 T02421005  RH  020%=      5-min Rain = 0
KEA1 260311Z 16015KT 24/M01 A2997 RMK A01 T02421005  RH  020%=      5-min Rain = 0
KEA1 260312Z 16015KT 24/M01 A2997 RMK A01 T02411005  RH  020%=      5-min Rain = 0
KEA1 260313Z 16015KT 24/M01 A2997 RMK A01 T02411005  RH  020%=      5-min Rain = 0
KEA1 260314Z 16015KT 24/M01 A2997 RMK A01 T02421005  RH  020%=      5-min Rain = 0
KEA1 260315Z 16014KT 24/M00 A2997 RMK A01 T02421004  RH  020%=      5-min Rain = 0
KEA1 260316Z 16013KT 24/M00 A2997 RMK A01 T02421004  RH  020%=      5-min Rain = 0
KEA1 260317Z 16013KT 24/M00 A2997 RMK A01 T02411004  RH  020%=      5-min Rain = 0
KEA1 260318Z 16014KT 24/M00 A2997 RMK A01 T02401004  RH  020%=      5-min Rain = 0
KEA1 260319Z 16016KT 24/M00 A2997 RMK A01 T02401004  RH  020%=      5-min Rain = 0
KEA1 260320Z 16015KT 24/M00 A2997 RMK A01 T02411003  RH  020%=      5-min Rain = 0
KEA1 260321Z 16015KT 24/M00 A2997 RMK A01 T02411003  RH  020%=      5-min Rain = 0
KEA1 260322Z 16015KT 24/M00 A2997 RMK A01 T02411003  RH  020%=      5-min Rain = 0
KEA1 260323Z 16013KT 24/M00 A2997 RMK A01 T02401003  RH  020%=      5-min Rain = 0
KEA1 260324Z 16016KT 24/M00 A2997 RMK A01 T02401003  RH  020%=      5-min Rain = 0
KEA1 260325Z 16015KT 24/M00 A2997 RMK A01 T02401003  RH  020%=      5-min Rain = 0
KEA1 260326Z 16013G18KT 24/M00 A2997 RMK A01 T02401002  RH  020%=      5-min Rain = 0
KEA1 260327Z 16014KT 24/M00 A2997 RMK A01 T02391002  RH  020%=      5-min Rain = 0
KEA1 260328Z 16014KT 24/M00 A2997 RMK A01 T02391002  RH  020%=      5-min Rain = 0
KEA1 260329Z 16014KT 24/M00 A2997 RMK A01 T02381002  RH  020%=      5-min Rain = 0
KEA1 260330Z 16014KT 24/M00 A2997 RMK A01 T02381002  RH  020%=      5-min Rain = 0
KEA1 260331Z 16014KT 24/M00 A2997 RMK A01 T02371002  RH  021%=      5-min Rain = 0
KEA1 260332Z 16014KT 24/M00 A2997 RMK A01 T02381002  RH  021%=      5-min Rain = 0
KEA1 260333Z 16015KT 24/M00 A2997 RMK A01 T02371002  RH  021%=      5-min Rain = 0
KEA1 260334Z 16013KT 24/M00 A2997 RMK A01 T02361002  RH  021%=      5-min Rain = 0
KEA1 260335Z 16016KT 24/M00 A2997 RMK A01 T02371001  RH  021%=      5-min Rain = 0
KEA1 260336Z 16014KT 24/M00 A2997 RMK A01 T02371001  RH  021%=      5-min Rain = 0
KEA1 260337Z 16013KT 24/M00 A2997 RMK A01 T02371001  RH  021%=      5-min Rain = 0
KEA1 260338Z 16014KT 24/00 A2997 RMK A01 T023600-0  RH  021%=      5-min Rain = 0
KEA1 260339Z 16014KT 24/00 A2997 RMK A01 T023500-0  RH  021%=      5-min Rain = 0
KEA1 260340Z 16016KT 24/00 A2997 RMK A01 T02360000  RH  021%=      5-min Rain = 0
KEA1 260341Z 17015KT 24/00 A2997 RMK A01 T02370001  RH  021%=      5-min Rain = 0
KEA1 260342Z 16014KT 24/00 A2997 RMK A01 T02370001  RH  021%=      5-min Rain = 0
KEA1 260343Z 16014KT 24/00 A2997 RMK A01 T02380001  RH  021%=      5-min Rain = 0
KEA1 260344Z 17014KT 24/00 A2997 RMK A01 T02370001  RH  021%=      5-min Rain = 0
KEA1 260345Z 16014KT 24/00 A2997 RMK A01 T02360001  RH  021%=      5-min Rain = 0
KEA1 260346Z 16014KT 24/00 A2997 RMK A01 T02360002  RH  021%=      5-min Rain = 0
KEA1 260347Z 17016KT 24/00 A2997 RMK A01 T02360002  RH  021%=      5-min Rain = 0
KEA1 260348Z 16014KT 24/00 A2997 RMK A01 T02360002  RH  021%=      5-min Rain = 0
KEA1 260349Z 16014KT 24/00 A2997 RMK A01 T02360003  RH  021%=      5-min Rain = 0
KEA1 260350Z 16014KT 24/00 A2997 RMK A01 T02350003  RH  021%=      5-min Rain = 0
KEA1 260351Z 16014KT 24/00 A2997 RMK A01 T02350003  RH  022%=      5-min Rain = 0
KEA1 260352Z 16015KT 24/00 A2997 RMK A01 T02350003  RH  022%=      5-min Rain = 0
KEA1 260353Z 16015KT 24/00 A2997 RMK A01 T02350004  RH  022%=      5-min Rain = 0
KEA1 260354Z 16015KT 24/00 A2997 RMK A01 T02350003  RH  022%=      5-min Rain = 0
KEA1 260355Z 16014KT 24/00 A2997 RMK A01 T02350004  RH  022%=      5-min Rain = 0
KEA1 260356Z 16016KT 23/00 A2997 RMK A01 T02340004  RH  022%=      5-min Rain = 0
KEA1 260357Z 16014KT 23/00 A2998 RMK A01 T02340004  RH  022%=      5-min Rain = 0
KEA1 260358Z 16014KT 23/00 A2997 RMK A01 T02340004  RH  022%=      5-min Rain = 0
KEA1 260359Z 17015KT 23/00 A2998 RMK A01 T02330004  RH  022%=      5-min Rain = 0
KEA1 260400Z 16014KT 23/01 A2998 RMK A01 T02330005  RH  022%=      5-min Rain = 0
KEA1 260401Z 16013KT 23/00 A2998 RMK A01 T02330004  RH  022%=      5-min Rain = 0
KEA1 260402Z 16014KT 23/01 A2998 RMK A01 T02320005  RH  022%=      5-min Rain = 0
KEA1 260403Z 16013KT 23/01 A2997 RMK A01 T02320005  RH  022%=      5-min Rain = 0
KEA1 260404Z 16015KT 23/01 A2998 RMK A01 T02320005  RH  022%=      5-min Rain = 0
KEA1 260405Z 16014KT 23/01 A2998 RMK A01 T02320006  RH  022%=      5-min Rain = 0
KEA1 260406Z 17015KT 23/01 A2998 RMK A01 T02320006  RH  022%=      5-min Rain = 0
KEA1 260407Z 16014KT 23/01 A2998 RMK A01 T02320006  RH  022%=      5-min Rain = 0
KEA1 260408Z 17014KT 23/01 A2998 RMK A01 T02320006  RH  023%=      5-min Rain = 0
KEA1 260409Z 16013KT 23/01 A2998 RMK A01 T02310006  RH  023%=      5-min Rain = 0
KEA1 260410Z 16014KT 23/01 A2998 RMK A01 T02300006  RH  023%=      5-min Rain = 0
KEA1 260411Z 16015KT 23/01 A2998 RMK A01 T02300006  RH  023%=      5-min Rain = 0
KEA1 260412Z 17014KT 23/01 A2998 RMK A01 T02310007  RH  023%=      5-min Rain = 0
KEA1 260413Z 17014KT 23/01 A2998 RMK A01 T02310007  RH  023%=      5-min Rain = 0
KEA1 260414Z 16014KT 23/01 A2998 RMK A01 T02300007  RH  023%=      5-min Rain = 0
KEA1 260415Z 16014KT 23/01 A2998 RMK A01 T02300008  RH  023%=      5-min Rain = 0
KEA1 260416Z 16015KT 23/01 A2998 RMK A01 T02300008  RH  023%=      5-min Rain = 0
KEA1 260417Z 17015KT 23/01 A2998 RMK A01 T02300008  RH  023%=      5-min Rain = 0
KEA1 260418Z 16014KT 23/01 A2998 RMK A01 T02300008  RH  023%=      5-min Rain = 0
KEA1 260419Z 16015KT 23/01 A2998 RMK A01 T02300008  RH  023%=      5-min Rain = 0
KEA1 260420Z 16014KT 23/01 A2998 RMK A01 T02290008  RH  023%=      5-min Rain = 0
KEA1 260421Z 16014KT 23/01 A2998 RMK A01 T02290008  RH  023%=      5-min Rain = 0
KEA1 260422Z 16013KT 23/01 A2997 RMK A01 T02280009  RH  023%=      5-min Rain = 0
KEA1 260423Z 16015KT 23/01 A2997 RMK A01 T02280009  RH  024%=      5-min Rain = 0
KEA1 260424Z 16015KT 23/01 A2997 RMK A01 T02280009  RH  024%=      5-min Rain = 0
KEA1 260425Z 16014KT 23/01 A2998 RMK A01 T02280009  RH  024%=      5-min Rain = 0
KEA1 260426Z 17013KT 23/01 A2998 RMK A01 T02280010  RH  024%=      5-min Rain = 0
KEA1 260427Z 17015KT 23/01 A2998 RMK A01 T02280010  RH  024%=      5-min Rain = 0
KEA1 260428Z 17016KT 23/01 A2997 RMK A01 T02280011  RH  024%=      5-min Rain = 0
KEA1 260429Z 17015KT 23/01 A2997 RMK A01 T02290011  RH  024%=      5-min Rain = 0
KEA1 260430Z 16015KT 23/01 A2997 RMK A01 T02290011  RH  024%=      5-min Rain = 0
KEA1 260431Z 17015KT 23/01 A2997 RMK A01 T02290011  RH  024%=      5-min Rain = 0
KEA1 260432Z 17016KT 23/01 A2997 RMK A01 T02290011  RH  024%=      5-min Rain = 0
KEA1 260433Z 17013KT 23/01 A2998 RMK A01 T02280011  RH  024%=      5-min Rain = 0
KEA1 260434Z 17014KT 23/01 A2997 RMK A01 T02270011  RH  024%=      5-min Rain = 0
KEA1 260435Z 16013KT 23/01 A2998 RMK A01 T02270011  RH  024%=      5-min Rain = 0
KEA1 260436Z 17015KT 23/01 A2998 RMK A01 T02270012  RH  024%=      5-min Rain = 0
KEA1 260437Z 17013G18KT 23/01 A2998 RMK A01 T02260012  RH  024%=      5-min Rain = 0
KEA1 260438Z 17016G21KT 23/01 A2998 RMK A01 T02260012  RH  024%=      5-min Rain = 0
KEA1 260439Z 17013KT 23/01 A2998 RMK A01 T02260012  RH  024%=      5-min Rain = 0
KEA1 260440Z 17014KT 23/01 A2998 RMK A01 T02250012  RH  024%=      5-min Rain = 0
KEA1 260441Z 17015KT 23/01 A2998 RMK A01 T02250013  RH  025%=      5-min Rain = 0
KEA1 260442Z 17015KT 23/01 A2998 RMK A01 T02250013  RH  025%=      5-min Rain = 0
KEA1 260443Z 17014KT 23/01 A2998 RMK A01 T02250013  RH  025%=      5-min Rain = 0
KEA1 260444Z 17013KT 23/01 A2998 RMK A01 T02260013  RH  025%=      5-min Rain = 0
KEA1 260445Z 17014KT 23/01 A2998 RMK A01 T02250013  RH  025%=      5-min Rain = 0
KEA1 260446Z 17014KT 22/01 A2998 RMK A01 T02240013  RH  025%=      5-min Rain = 0
KEA1 260447Z 17015KT 23/01 A2998 RMK A01 T02250014  RH  025%=      5-min Rain = 0
KEA1 260448Z 17014KT 23/01 A2998 RMK A01 T02250014  RH  025%=      5-min Rain = 0
KEA1 260449Z 17015KT 23/01 A2998 RMK A01 T02250014  RH  025%=      5-min Rain = 0
KEA1 260450Z 17014KT 23/01 A2998 RMK A01 T02250014  RH  025%=      5-min Rain = 0
KEA1 260451Z 17014KT 23/01 A2998 RMK A01 T02250014  RH  025%=      5-min Rain = 0
KEA1 260452Z 17015KT 22/01 A2998 RMK A01 T02240014  RH  025%=      5-min Rain = 0
KEA1 260453Z 17015KT 22/01 A2998 RMK A01 T02230014  RH  025%=      5-min Rain = 0
KEA1 260454Z 17015KT 22/01 A2998 RMK A01 T02230014  RH  025%=      5-min Rain = 0
KEA1 260455Z 17015KT 22/01 A2998 RMK A01 T02230014  RH  025%=      5-min Rain = 0
KEA1 260456Z 17014KT 22/01 A2998 RMK A01 T02230014  RH  025%=      5-min Rain = 0
KEA1 260457Z 17014KT 22/01 A2998 RMK A01 T02220014  RH  025%=      5-min Rain = 0
KEA1 260458Z 17015KT 22/01 A2998 RMK A01 T02210014  RH  025%=      5-min Rain = 0
KEA1 260459Z 17016KT 22/01 A2998 RMK A01 T02210014  RH  025%=      5-min Rain = 0

Page generated in 0.0797 seconds.